| time (UTC) | temp C | wind direction | speed KPH | gust KPH | rain 1hr cm | rain 24hr cm | rain mn cm | humidity % | barometer mb |
| 20260502190941 | 10 | 335 | 14.5 | 22.5 | 0.00 | 0.03 | 0.03 | 35 | 1010.9 |
| 20260502190905 | 10 | 331 | 11.3 | 20.9 | 0.00 | 0.03 | 0.03 | 35 | 1010.9 |
| 20260502190728 | 10 | 309 | 6.4 | 20.9 | 0.00 | 0.03 | 0.03 | 34 | 1011.0 |
| 20260502190649 | 10 | 296 | 8.0 | 17.7 | 0.00 | 0.03 | 0.03 | 35 | 1011.0 |
| 20260502190553 | 10 | 360 | 9.7 | 17.7 | 0.00 | 0.03 | 0.03 | 36 | 1011.0 |
| 20260502190502 | 10 | 312 | 8.0 | 17.7 | 0.00 | 0.03 | 0.03 | 36 | 1011.0 |
| 20260502190402 | 10 | 326 | 4.8 | 17.7 | 0.00 | 0.03 | 0.03 | 36 | 1011.0 |
| 20260502190212 | 10 | 257 | 6.4 | 20.9 | 0.00 | 0.03 | 0.03 | 39 | 1011.0 |
| 20260502190107 | 10 | 305 | 8.0 | 20.9 | 0.00 | 0.03 | 0.03 | 39 | 1011.0 |
| 20260502185916 | 10 | 285 | 9.7 | 20.9 | 0.00 | 0.03 | 0.03 | 41 | 1011.0 |
| 20260502185818 | 10 | 311 | 11.3 | 20.9 | 0.00 | 0.03 | 0.03 | 42 | 1010.9 |
| 20260502185721 | 10 | 360 | 12.9 | 20.9 | 0.00 | 0.03 | 0.03 | 45 | 1010.9 |
| 20260502185621 | 10 | 321 | 11.3 | 20.9 | 0.00 | 0.03 | 0.03 | 45 | 1011.0 |
| 20260502185432 | 10 | 188 | 8.0 | 14.5 | 0.00 | 0.03 | 0.03 | 46 | 1011.0 |
| 20260502185327 | 10 | 267 | 4.8 | 14.5 | 0.00 | 0.03 | 0.03 | 46 | 1010.9 |
| 20260502185215 | 10 | 271 | 6.4 | 12.9 | 0.00 | 0.03 | 0.03 | 46 | 1010.9 |
| 20260502185146 | 10 | 338 | 8.0 | 12.9 | 0.00 | 0.03 | 0.03 | 46 | 1010.9 |
| 20260502185018 | 10 | 281 | 9.7 | 12.9 | 0.00 | 0.03 | 0.03 | 46 | 1010.9 |
| 20260502184935 | 10 | 278 | 9.7 | 12.9 | 0.00 | 0.03 | 0.03 | 46 | 1010.9 |
| 20260502184725 | 10 | 293 | 6.4 | 14.5 | 0.00 | 0.03 | 0.03 | 45 | 1010.9 |
| 20260502184640 | 10 | 242 | 6.4 | 14.5 | 0.00 | 0.03 | 0.03 | 47 | 1010.9 |
| 20260502184543 | 10 | 336 | 8.0 | 16.1 | 0.00 | 0.03 | 0.03 | 48 | 1010.9 |
| 20260502184436 | 10 | 217 | 6.4 | 16.1 | 0.00 | 0.03 | 0.03 | 48 | 1010.8 |
| 20260502184400 | 10 | 296 | 4.8 | 16.1 | 0.00 | 0.03 | 0.03 | 48 | 1010.8 |
| 20260502184248 | 10 | 317 | 8.0 | 16.1 | 0.00 | 0.03 | 0.03 | 48 | 1010.8 |
| 20260502184149 | 10 | 337 | 9.7 | 16.1 | 0.00 | 0.03 | 0.03 | 48 | 1010.8 |
| 20260502184021 | 10 | 316 | 9.7 | 16.1 | 0.00 | 0.03 | 0.03 | 48 | 1010.9 |
| 20260502183935 | 10 | 327 | 6.4 | 16.1 | 0.00 | 0.03 | 0.03 | 47 | 1010.9 |
| 20260502183754 | 10 | 306 | 8.0 | 16.1 | 0.00 | 0.03 | 0.03 | 47 | 1010.8 |
| 20260502183657 | 10 | 290 | 6.4 | 16.1 | 0.00 | 0.03 | 0.03 | 46 | 1010.8 |
| 20260502183611 | 10 | 206 | 3.2 | 11.3 | 0.00 | 0.03 | 0.03 | 47 | 1010.9 |
| 20260502183420 | 10 | 226 | 8.0 | 11.3 | 0.00 | 0.03 | 0.03 | 47 | 1010.8 |
| 20260502183331 | 10 | 196 | 8.0 | 11.3 | 0.00 | 0.03 | 0.03 | 47 | 1010.9 |
| 20260502183134 | 10 | 261 | 6.4 | 12.9 | 0.00 | 0.03 | 0.03 | 45 | 1010.9 |
| 20260502183057 | 10 | 194 | 4.8 | 11.3 | 0.00 | 0.03 | 0.03 | 43 | 1010.9 |
| 20260502182925 | 10 | 304 | 4.8 | 8.0 | 0.00 | 0.03 | 0.03 | 44 | 1010.8 |
| 20260502182744 | 10 | 194 | 3.2 | 8.0 | 0.00 | 0.03 | 0.03 | 45 | 1010.8 |
| 20260502182628 | 10 | 115 | 3.2 | 8.0 | 0.00 | 0.03 | 0.03 | 44 | 1010.8 |
| 20260502182549 | 10 | 254 | 3.2 | 12.9 | 0.00 | 0.03 | 0.03 | 45 | 1010.8 |
| 20260502182332 | 10 | 257 | 3.2 | 12.9 | 0.00 | 0.03 | 0.03 | 43 | 1010.8 |
| 20260502182234 | 10 | 217 | 3.2 | 12.9 | 0.00 | 0.03 | 0.03 | 46 | 1010.8 |
| 20260502182137 | 10 | 209 | 4.8 | 12.9 | 0.00 | 0.03 | 0.03 | 46 | 1010.8 |
| 20260502182105 | 10 | 213 | 4.8 | 12.9 | 0.00 | 0.03 | 0.03 | 46 | 1010.8 |
| 20260502182026 | 10 | 202 | 6.4 | 12.9 | 0.00 | 0.03 | 0.03 | 46 | 1010.7 |
| 20260502181830 | 10 | 215 | 4.8 | 12.9 | 0.00 | 0.03 | 0.03 | 46 | 1010.8 |
| 20260502181754 | 10 | 275 | 4.8 | 12.9 | 0.00 | 0.03 | 0.03 | 46 | 1010.8 |
| 20260502181659 | 10 | 310 | 6.4 | 14.5 | 0.00 | 0.03 | 0.03 | 46 | 1010.7 |
| 20260502181619 | 10 | 301 | 6.4 | 14.5 | 0.00 | 0.03 | 0.03 | 46 | 1010.7 |
| 20260502181450 | 10 | 315 | 8.0 | 14.5 | 0.00 | 0.03 | 0.03 | 45 | 1010.7 |
| 20260502181345 | 10 | 292 | 6.4 | 14.5 | 0.00 | 0.03 | 0.03 | 46 | 1010.7 |
| 20260502181215 | 10 | 323 | 6.4 | 14.5 | 0.00 | 0.03 | 0.03 | 45 | 1010.7 |
| 20260502181137 | 10 | 283 | 6.4 | 14.5 | 0.00 | 0.03 | 0.03 | 46 | 1010.7 |
| 20260502180924 | 10 | 355 | 9.7 | 14.5 | 0.00 | 0.03 | 0.03 | 46 | 1010.7 |
| 20260502180848 | 10 | 338 | 8.0 | 14.5 | 0.00 | 0.03 | 0.03 | 44 | 1010.7 |
| 20260502180803 | 10 | 12 | 4.8 | 12.9 | 0.00 | 0.03 | 0.03 | 41 | 1010.8 |
| 20260502180702 | 10 | 333 | 4.8 | 12.9 | 0.00 | 0.03 | 0.03 | 42 | 1010.8 |
| 20260502180534 | 10 | 320 | 1.6 | 12.9 | 0.00 | 0.03 | 0.03 | 41 | 1010.8 |
| 20260502180428 | 10 | 340 | 1.6 | 12.9 | 0.00 | 0.03 | 0.03 | 45 | 1010.8 |
| 20260502180237 | 10 | 196 | 3.2 | 12.9 | 0.00 | 0.03 | 0.03 | 46 | 1010.8 |
| 20260502180151 | 10 | 219 | 4.8 | 12.9 | 0.00 | 0.03 | 0.03 | 46 | 1010.9 |
| 20260502170424 | 8 | 360 | 4.8 | 12.9 | 0.00 | 0.03 | 0.03 | 31 | 1011.2 |
| 20260502170346 | 8 | 11 | 6.4 | 12.9 | 0.00 | 0.03 | 0.03 | 28 | 1011.2 |
| 20260502170307 | 8 | 355 | 8.0 | 12.9 | 0.00 | 0.03 | 0.03 | 29 | 1011.2 |
| 20260502170212 | 8 | 335 | 6.4 | 12.9 | 0.00 | 0.03 | 0.03 | 27 | 1011.1 |
| 20260502170134 | 8 | 323 | 6.4 | 12.9 | 0.00 | 0.03 | 0.03 | 27 | 1011.1 |
| 20260502164339 | 8 | 11 | 6.4 | 9.7 | 0.00 | 0.03 | 0.03 | 13 | 1011.4 |
| 20260502164130 | 8 | 37 | 1.6 | 9.7 | 0.00 | 0.03 | 0.03 | 6 | 1011.4 |
| 20260502164044 | 8 | 39 | 1.6 | 9.7 | 0.00 | 0.03 | 0.03 | 5 | 1011.4 |
| 20260502163915 | 8 | 328 | 3.2 | 14.5 | 0.00 | 0.03 | 0.03 | 11 | 1011.4 |
| 20260502163836 | 8 | 328 | 3.2 | 14.5 | 0.00 | 0.03 | 0.03 | 14 | 1011.4 |
| 20260502163708 | 8 | 262 | 6.4 | 14.5 | 0.00 | 0.03 | 0.03 | 14 | 1011.4 |
| 20260502163620 | 8 | 278 | 8.0 | 14.5 | 0.00 | 0.03 | 0.03 | 12 | 1011.4 |
| 20260502163451 | 8 | 331 | 4.8 | 14.5 | 0.00 | 0.03 | 0.03 | 6 | 1011.4 |
| 20260502163355 | 8 | 346 | 4.8 | 14.5 | 0.00 | 0.03 | 0.03 | 7 | 1011.4 |
| 20260502163238 | 8 | 310 | 8.0 | 14.5 | 0.00 | 0.03 | 0.03 | 1 | 1011.4 |
| 20260502163201 | 8 | 314 | 9.7 | 14.5 | 0.00 | 0.03 | 0.03 | 1 | 1011.4 |
| 20260502163122 | 8 | 308 | 8.0 | 14.5 | 0.00 | 0.03 | 0.03 | 6 | 1011.4 |
| 20260502162926 | 8 | 11 | 3.2 | 14.5 | 0.00 | 0.03 | 0.03 | 5 | 1011.5 |
| 20260502162850 | 8 | 36 | 3.2 | 14.5 | 0.00 | 0.03 | 0.03 | 6 | 1011.5 |
| 20260502162753 | 8 | 287 | 6.4 | 14.5 | 0.00 | 0.03 | 0.03 | 6 | 1011.5 |
| 20260502162631 | 8 | 311 | 6.4 | 14.5 | 0.00 | 0.03 | 0.03 | 5 | 1011.5 |
| 20260502162534 | 8 | 334 | 8.0 | 14.5 | 0.00 | 0.03 | 0.03 | 2 | 1011.5 |
| 20260502162456 | 8 | 306 | 9.7 | 14.5 | 0.00 | 0.03 | 0.03 | 1 | 1011.5 |
| 20260502162420 | 8 | 355 | 9.7 | 14.5 | 0.00 | 0.03 | 0.03 | 1 | 1011.5 |
| 20260502162227 | 8 | 344 | 6.4 | 14.5 | 0.00 | 0.03 | 0.03 | 1 | 1011.6 |
| 20260502162129 | 8 | 35 | 6.4 | 14.5 | 0.00 | 0.03 | 0.03 | 1 | 1011.6 |
| 20260502162034 | 8 | 43 | 6.4 | 14.5 | 0.00 | 0.03 | 0.03 | 1 | 1011.6 |
| 20260502162004 | 8 | 355 | 6.4 | 14.5 | 0.00 | 0.03 | 0.03 | 1 | 1011.6 |
| 20260502161927 | 8 | 355 | 6.4 | 14.5 | 0.00 | 0.03 | 0.03 | 1 | 1011.6 |
| 20260502161756 | 8 | 300 | 3.2 | 14.5 | 0.00 | 0.03 | 0.03 | 1 | 1011.6 |
| 20260502161658 | 8 | 360 | 3.2 | 14.5 | 0.00 | 0.03 | 0.03 | 1 | 1011.6 |
| 20260502161619 | 8 | 287 | 4.8 | 14.5 | 0.00 | 0.03 | 0.03 | 1 | 1011.6 |
| 20260502161443 | 8 | 316 | 4.8 | 14.5 | 0.00 | 0.03 | 0.03 | 1 | 1011.7 |
| 20260502161346 | 8 | 12 | 3.2 | 14.5 | 0.00 | 0.03 | 0.03 | 1 | 1011.7 |
| 20260502161303 | 8 | 42 | 4.8 | 16.1 | 0.00 | 0.03 | 0.03 | 1 | 1011.7 |
| 20260502161111 | 8 | 30 | 9.7 | 16.1 | 0.00 | 0.03 | 0.03 | 1 | 1011.7 |
| 20260502161033 | 8 | 347 | 11.3 | 16.1 | 0.00 | 0.03 | 0.03 | 1 | 1011.7 |
| 20260502160835 | 8 | 341 | 6.4 | 16.1 | 0.00 | 0.03 | 0.03 | 1 | 1011.7 |
| 20260502160757 | 8 | 30 | 4.8 | 16.1 | 0.00 | 0.03 | 0.03 | 1 | 1011.7 |
| 20260502160700 | 8 | 55 | 4.8 | 16.1 | 0.00 | 0.03 | 0.03 | 1 | 1011.7 |
| 20260502160543 | 7 | 24 | 6.4 | 16.1 | 0.00 | 0.03 | 0.03 | 1 | 1011.7 |
| 20260502160427 | 7 | 28 | 6.4 | 16.1 | 0.00 | 0.03 | 0.03 | 1 | 1011.8 |
| 20260502160348 | 8 | 51 | 4.8 | 9.7 | 0.00 | 0.03 | 0.03 | 1 | 1011.8 |
| 20260502160230 | 7 | 349 | 3.2 | 12.9 | 0.00 | 0.03 | 0.03 | 1 | 1011.8 |
| 20260502160135 | 7 | 355 | 3.2 | 16.1 | 0.00 | 0.03 | 0.03 | 1 | 1011.9 |
| 20260502152332 | 7 | 344 | 6.4 | 9.7 | 0.00 | 0.03 | 0.03 | 1 | 1012.2 |
| 20260502152253 | 7 | 341 | 6.4 | 9.7 | 0.00 | 0.03 | 0.03 | 1 | 1012.2 |
| 20260502152154 | 7 | 325 | 6.4 | 9.7 | 0.00 | 0.03 | 0.03 | 1 | 1012.2 |
| 20260502152037 | 7 | 336 | 4.8 | 8.0 | 0.00 | 0.03 | 0.03 | 1 | 1012.2 |
| 20260502152000 | 7 | 335 | 6.4 | 8.0 | 0.00 | 0.03 | 0.03 | 1 | 1012.2 |
| 20260502151916 | 7 | 338 | 6.4 | 8.0 | 0.00 | 0.03 | 0.03 | 1 | 1012.2 |
| 20260502151734 | 7 | 350 | 4.8 | 11.3 | 0.00 | 0.03 | 0.03 | 1 | 1012.2 |
| 20260502151651 | 7 | 350 | 4.8 | 11.3 | 0.00 | 0.03 | 0.03 | 1 | 1012.2 |
| 20260502151459 | 7 | 346 | 4.8 | 11.3 | 0.00 | 0.03 | 0.03 | 1 | 1012.2 |
| 20260502151420 | 7 | 341 | 4.8 | 11.3 | 0.00 | 0.03 | 0.03 | 1 | 1012.2 |
| 20260502151228 | 7 | 312 | 3.2 | 11.3 | 0.00 | 0.03 | 0.03 | 1 | 1012.3 |
| 20260502151131 | 7 | 344 | 1.6 | 11.3 | 0.00 | 0.03 | 0.03 | 1 | 1012.2 |
| 20260502151035 | 7 | 313 | 4.8 | 11.3 | 0.00 | 0.03 | 0.03 | 1 | 1012.3 |
| 20260502150944 | 7 | 310 | 4.8 | 11.3 | 0.00 | 0.03 | 0.03 | 1 | 1012.3 |
| 20260502130747 | 5 | 325 | 4.8 | 9.7 | 0.00 | 0.03 | 0.03 | 1 | 1012.3 |
| 20260502130708 | 5 | 338 | 4.8 | 9.7 | 0.00 | 0.03 | 0.03 | 1 | 1012.2 |
| 20260502130612 | 5 | 306 | 3.2 | 6.4 | 0.00 | 0.03 | 0.03 | 1 | 1012.2 |
| 20260502130533 | 5 | 289 | 4.8 | 6.4 | 0.00 | 0.03 | 0.03 | 1 | 1012.2 |
| 20260502130336 | 5 | 286 | 3.2 | 6.4 | 0.00 | 0.03 | 0.03 | 1 | 1012.2 |
| 20260502130237 | 5 | 335 | 3.2 | 6.4 | 0.00 | 0.03 | 0.03 | 1 | 1012.2 |
| 20260502130143 | 5 | 335 | 3.2 | 8.0 | 0.00 | 0.03 | 0.03 | 1 | 1012.2 |
| 20260502123757 | 5 | 315 | 6.4 | 9.7 | 0.00 | 0.03 | 0.03 | 1 | 1012.0 |
| 20260502123659 | 5 | 343 | 6.4 | 9.7 | 0.00 | 0.03 | 0.03 | 1 | 1012.0 |
| 20260502123527 | 5 | 339 | 6.4 | 9.7 | 0.00 | 0.03 | 0.03 | 1 | 1012.0 |
| 20260502123443 | 5 | 335 | 4.8 | 8.0 | 0.00 | 0.03 | 0.03 | 1 | 1012.0 |
| 20260502123344 | 5 | 309 | 4.8 | 8.0 | 0.00 | 0.03 | 0.03 | 1 | 1012.1 |
| 20260502123226 | 5 | 355 | 4.8 | 8.0 | 0.00 | 0.03 | 0.03 | 1 | 1012.0 |
| 20260502123126 | 5 | 317 | 4.8 | 8.0 | 0.00 | 0.03 | 0.03 | 1 | 1012.1 |
| 20260502122930 | 5 | 333 | 6.4 | 8.0 | 0.00 | 0.03 | 0.03 | 1 | 1012.1 |
| 20260502122833 | 5 | 322 | 4.8 | 9.7 | 0.00 | 0.03 | 0.03 | 1 | 1012.1 |
| 20260502122734 | 5 | 313 | 4.8 | 9.7 | 0.03 | 0.03 | 0.03 | 1 | 1012.1 |
| 20260502122658 | 5 | 312 | 4.8 | 9.7 | 0.03 | 0.03 | 0.03 | 1 | 1012.1 |
| 20260502122623 | 5 | 311 | 4.8 | 9.7 | 0.03 | 0.03 | 0.03 | 1 | 1012.1 |
| 20260502122426 | 5 | 310 | 3.2 | 9.7 | 0.03 | 0.03 | 0.03 | 1 | 1012.1 |
| 20260502122348 | 5 | 310 | 3.2 | 9.7 | 0.03 | 0.03 | 0.03 | 1 | 1012.1 |
| 20260502122230 | 5 | 323 | 4.8 | 9.7 | 0.03 | 0.03 | 0.03 | 1 | 1012.1 |
| 20260502122152 | 5 | 336 | 4.8 | 9.7 | 0.03 | 0.03 | 0.03 | 1 | 1012.1 |
| 20260502122057 | 5 | 309 | 4.8 | 9.7 | 0.03 | 0.03 | 0.03 | 1 | 1012.1 |
| 20260502121936 | 5 | 321 | 3.2 | 9.7 | 0.03 | 0.03 | 0.03 | 1 | 1012.1 |
| 20260502121841 | 5 | 288 | 4.8 | 9.7 | 0.03 | 0.03 | 0.03 | 1 | 1012.1 |
| 20260502121739 | 5 | 275 | 6.4 | 9.7 | 0.03 | 0.03 | 0.03 | 1 | 1012.1 |
| 20260502121607 | 5 | 323 | 4.8 | 8.0 | 0.03 | 0.03 | 0.03 | 1 | 1012.1 |
| 20260502121525 | 5 | 340 | 3.2 | 8.0 | 0.03 | 0.03 | 0.03 | 1 | 1012.1 |
| 20260502121355 | 5 | 313 | 3.2 | 8.0 | 0.03 | 0.03 | 0.03 | 1 | 1012.2 |
| 20260502121255 | 5 | 312 | 4.8 | 8.0 | 0.03 | 0.03 | 0.03 | 1 | 1012.2 |
| 20260502121125 | 5 | 350 | 3.2 | 8.0 | 0.03 | 0.03 | 0.03 | 1 | 1012.1 |
| 20260502121017 | 5 | 344 | 3.2 | 8.0 | 0.03 | 0.03 | 0.03 | 1 | 1012.1 |
| 20260502120838 | 5 | 338 | 4.8 | 8.0 | 0.03 | 0.03 | 0.03 | 1 | 1012.1 |
| 20260502120753 | 5 | 340 | 6.4 | 9.7 | 0.03 | 0.03 | 0.03 | 1 | 1012.1 |
| 20260502120541 | 5 | 339 | 1.6 | 9.7 | 0.03 | 0.03 | 0.03 | 1 | 1012.2 |
| 20260502120435 | 5 | 297 | 3.2 | 9.7 | 0.03 | 0.03 | 0.03 | 1 | 1012.2 |
| 20260502120325 | 5 | 297 | 4.8 | 9.7 | 0.03 | 0.03 | 0.03 | 1 | 1012.1 |
| 20260502120245 | 5 | 327 | 3.2 | 9.7 | 0.03 | 0.03 | 0.03 | 1 | 1012.1 |
| 20260502115932 | 5 | 263 | 6.4 | 9.7 | 0.03 | 0.03 | 0.03 | 1 | 1012.1 |
| 20260502115835 | 5 | 343 | 4.8 | 9.7 | 0.03 | 0.03 | 0.03 | 1 | 1012.1 |
| 20260502115757 | 5 | 342 | 4.8 | 9.7 | 0.03 | 0.03 | 0.03 | 1 | 1012.1 |
| 20260502115730 | 5 | 328 | 4.8 | 9.7 | 0.03 | 0.03 | 0.03 | 1 | 1012.1 |
| 20260502115533 | 5 | 348 | 1.6 | 8.0 | 0.03 | 0.03 | 0.03 | 1 | 1012.0 |
| 20260502115456 | 5 | 311 | 1.6 | 8.0 | 0.03 | 0.03 | 0.03 | 1 | 1012.0 |
| 20260502115344 | 5 | 311 | 3.2 | 8.0 | 0.03 | 0.03 | 0.03 | 1 | 1012.1 |
| 20260502115306 | 5 | 311 | 4.8 | 8.0 | 0.03 | 0.03 | 0.03 | 1 | 1012.1 |
| 20260502115134 | 5 | 331 | 3.2 | 8.0 | 0.03 | 0.03 | 0.03 | 1 | 1012.0 |
| 20260502115026 | 5 | 319 | 3.2 | 8.0 | 0.03 | 0.03 | 0.03 | 1 | 1012.0 |
| 20260502114836 | 5 | 227 | 4.8 | 9.7 | 0.03 | 0.03 | 0.03 | 1 | 1012.0 |
| 20260502114729 | 5 | 331 | 4.8 | 8.0 | 0.03 | 0.03 | 0.03 | 1 | 1012.0 |
| 20260502114651 | 5 | 315 | 3.2 | 6.4 | 0.03 | 0.03 | 0.03 | 1 | 1012.0 |
| 20260502114536 | 5 | 346 | 1.6 | 6.4 | 0.03 | 0.03 | 0.03 | 1 | 1012.0 |
| 20260502114456 | 5 | 286 | 1.6 | 6.4 | 0.03 | 0.03 | 0.03 | 1 | 1011.9 |
| 20260502114338 | 5 | 286 | 1.6 | 9.7 | 0.03 | 0.03 | 0.03 | 1 | 1011.9 |
| 20260502114305 | 5 | 283 | 1.6 | 9.7 | 0.03 | 0.03 | 0.03 | 1 | 1011.9 |
| 20260502114225 | 5 | 263 | 3.2 | 9.7 | 0.03 | 0.03 | 0.03 | 1 | 1011.9 |
| 20260502114029 | 5 | 267 | 1.6 | 9.7 | 0.03 | 0.03 | 0.03 | 1 | 1011.9 |
| 20260502113952 | 5 | 301 | 1.6 | 9.7 | 0.03 | 0.03 | 0.03 | 1 | 1011.9 |
| 20260502113835 | 5 | 300 | 1.6 | 9.7 | 0.03 | 0.03 | 0.03 | 1 | 1011.9 |
| 20260502113757 | 5 | 300 | 1.6 | 9.7 | 0.03 | 0.03 | 0.03 | 1 | 1011.9 |
| 20260502113618 | 5 | 300 | 3.2 | 9.7 | 0.03 | 0.03 | 0.03 | 1 | 1011.9 |
| 20260502113550 | 5 | 300 | 3.2 | 9.7 | 0.03 | 0.03 | 0.03 | 1 | 1011.9 |
| 20260502113427 | 5 | 293 | 0.0 | 3.2 | 0.03 | 0.03 | 0.03 | 1 | 1011.8 |
| 20260502113148 | 5 | 254 | 0.0 | 0.0 | 0.03 | 0.03 | 0.03 | 1 | 1011.8 |
| 20260502113109 | 5 | 254 | 0.0 | 0.0 | 0.03 | 0.03 | 0.03 | 1 | 1011.8 |
| 20260502113030 | 5 | 254 | 0.0 | 0.0 | 0.03 | 0.03 | 0.03 | 1 | 1011.8 |
| 20260502112912 | 5 | 254 | 0.0 | 0.0 | 0.03 | 0.03 | 0.03 | 1 | 1011.8 |
| 20260502112834 | 5 | 254 | 0.0 | 0.0 | 0.03 | 0.03 | 0.03 | 1 | 1011.8 |
| 20260502112704 | 5 | 254 | 0.0 | 0.0 | 0.00 | 0.00 | 0.00 | 1 | 1011.8 |
| 20260502112617 | 5 | 254 | 0.0 | 0.0 | 0.00 | 0.00 | 0.00 | 1 | 1011.8 |
| 20260502112426 | 5 | 254 | 0.0 | 0.0 | 0.00 | 0.00 | 0.00 | 1 | 1011.7 |
| 20260502112341 | 5 | 254 | 0.0 | 0.0 | 0.00 | 0.00 | 0.00 | 1 | 1011.7 |
| 20260502112215 | 5 | 254 | 0.0 | 0.0 | 0.00 | 0.00 | 0.00 | 1 | 1011.7 |
| 20260502112137 | 5 | 254 | 0.0 | 0.0 | 0.00 | 0.00 | 0.00 | 1 | 1011.7 |
| 20260502112006 | 5 | 254 | 0.0 | 0.0 | 0.00 | 0.00 | 0.00 | 1 | 1011.7 |
| 20260502111849 | 5 | 254 | 0.0 | 0.0 | 0.00 | 0.00 | 0.00 | 1 | 1011.7 |
| 20260502111810 | 5 | 254 | 0.0 | 0.0 | 0.00 | 0.00 | 0.00 | 1 | 1011.7 |
| 20260502111710 | 5 | 254 | 0.0 | 0.0 | 0.00 | 0.00 | 0.00 | 1 | 1011.6 |
| 20260502111614 | 5 | 254 | 0.0 | 0.0 | 0.00 | 0.00 | 0.00 | 1 | 1011.6 |
| 20260502111535 | 5 | 254 | 0.0 | 0.0 | 0.00 | 0.00 | 0.00 | 1 | 1011.6 |
| 20260502111406 | 5 | 254 | 0.0 | 0.0 | 0.00 | 0.00 | 0.00 | 1 | 1011.6 |
| 20260502111320 | 5 | 254 | 0.0 | 0.0 | 0.00 | 0.00 | 0.00 | 1 | 1011.6 |
| 20260502111131 | 5 | 254 | 0.0 | 0.0 | 0.00 | 0.00 | 0.00 | 1 | 1011.5 |
| 20260502111054 | 5 | 254 | 0.0 | 0.0 | 0.00 | 0.00 | 0.00 | 1 | 1011.5 |
| 20260502110939 | 5 | 254 | 0.0 | 0.0 | 0.00 | 0.00 | 0.00 | 1 | 1011.5 |
| 20260502110902 | 5 | 254 | 0.0 | 0.0 | 0.00 | 0.00 | 0.00 | 1 | 1011.5 |
| 20260502110823 | 5 | 254 | 0.0 | 0.0 | 0.00 | 0.00 | 0.00 | 1 | 1011.6 |
| 20260502110627 | 5 | 254 | 0.0 | 0.0 | 0.00 | 0.00 | 0.00 | 1 | 1011.6 |
| 20260502110550 | 5 | 254 | 0.0 | 0.0 | 0.00 | 0.00 | 0.00 | 1 | 1011.6 |
| 20260502110455 | 5 | 254 | 0.0 | 0.0 | 0.00 | 0.00 | 0.00 | 1 | 1011.6 |
| 20260502110416 | 5 | 254 | 0.0 | 0.0 | 0.00 | 0.00 | 0.00 | 1 | 1011.6 |
| 20260502110219 | 5 | 254 | 0.0 | 0.0 | 0.00 | 0.00 | 0.00 | 1 | 1011.6 |
| 20260502110131 | 5 | 254 | 0.0 | 0.0 | 0.00 | 0.00 | 0.00 | 1 | 1011.6 |
| 20260502110034 | 5 | 254 | 0.0 | 0.0 | 0.00 | 0.00 | 0.00 | 1 | 1011.6 |
| 20260502105959 | 5 | 254 | 0.0 | 0.0 | 0.00 | 0.00 | 0.00 | 1 | 1011.6 |
| 20260502105921 | 5 | 254 | 0.0 | 0.0 | 0.00 | 0.00 | 0.00 | 1 | 1011.6 |
| 20260502105723 | 5 | 254 | 0.0 | 0.0 | 0.00 | 0.00 | 0.00 | 1 | 1011.6 |
| 20260502105646 | 5 | 254 | 0.0 | 0.0 | 0.00 | 0.00 | 0.00 | 1 | 1011.6 |
| 20260502105530 | 5 | 254 | 0.0 | 0.0 | 0.00 | 0.00 | 0.00 | 1 | 1011.6 |
| 20260502105451 | 5 | 254 | 0.0 | 0.0 | 0.00 | 0.00 | 0.00 | 1 | 1011.6 |
| 20260502105352 | 5 | 254 | 0.0 | 0.0 | 0.00 | 0.00 | 0.00 | 1 | 1011.6 |
| 20260502105235 | 5 | 254 | 0.0 | 0.0 | 0.00 | 0.00 | 0.00 | 1 | 1011.6 |
| 20260502105158 | 5 | 254 | 0.0 | 0.0 | 0.00 | 0.00 | 0.00 | 1 | 1011.6 |
| 20260502105040 | 5 | 254 | 0.0 | 0.0 | 0.00 | 0.00 | 0.00 | 1 | 1011.6 |
| 20260502104944 | 5 | 254 | 0.0 | 0.0 | 0.00 | 0.00 | 0.00 | 1 | 1011.6 |
| 20260502104814 | 5 | 254 | 0.0 | 0.0 | 0.00 | 0.00 | 0.00 | 1 | 1011.5 |
| 20260502104730 | 5 | 254 | 0.0 | 0.0 | 0.00 | 0.00 | 0.00 | 1 | 1011.5 |
| 20260502104601 | 5 | 254 | 0.0 | 0.0 | 0.00 | 0.00 | 0.00 | 1 | 1011.6 |
| 20260502104501 | 5 | 254 | 0.0 | 0.0 | 0.00 | 0.00 | 0.00 | 1 | 1011.5 |
| 20260502104222 | 5 | 254 | 0.0 | 0.0 | 0.00 | 0.00 | 0.00 | 1 | 1011.5 |
| 20260502104145 | 5 | 254 | 0.0 | 0.0 | 0.00 | 0.00 | 0.00 | 1 | 1011.5 |
| 20260502104048 | 5 | 254 | 0.0 | 0.0 | 0.00 | 0.00 | 0.00 | 1 | 1011.5 |
| 20260502103949 | 5 | 277 | 0.0 | 0.0 | 0.00 | 0.00 | 0.00 | 1 | 1011.5 |
| 20260502103911 | 5 | 277 | 0.0 | 0.0 | 0.00 | 0.00 | 0.00 | 1 | 1011.5 |
| 20260502103816 | 5 | 277 | 0.0 | 0.0 | 0.00 | 0.00 | 0.00 | 1 | 1011.5 |
| 20260502103719 | 5 | 277 | 0.0 | 0.0 | 0.00 | 0.00 | 0.00 | 1 | 1011.5 |
| 20260502103523 | 5 | 277 | 0.0 | 0.0 | 0.00 | 0.00 | 0.00 | 1 | 1011.6 |
| 20260502103425 | 5 | 277 | 0.0 | 0.0 | 0.00 | 0.00 | 0.00 | 1 | 1011.5 |
| 20260502103329 | 5 | 277 | 0.0 | 0.0 | 0.00 | 0.00 | 0.00 | 1 | 1011.5 |
| 20260502103249 | 5 | 277 | 0.0 | 0.0 | 0.00 | 0.00 | 0.00 | 1 | 1011.5 |
| 20260502103119 | 5 | 277 | 0.0 | 0.0 | 0.00 | 0.00 | 0.00 | 1 | 1011.5 |
| 20260502103033 | 5 | 277 | 0.0 | 0.0 | 0.00 | 0.00 | 0.00 | 1 | 1011.5 |
| 20260502102904 | 5 | 277 | 0.0 | 0.0 | 0.00 | 0.00 | 0.00 | 1 | 1011.5 |
| 20260502102825 | 5 | 277 | 0.0 | 0.0 | 0.00 | 0.00 | 0.00 | 1 | 1011.6 |
| 20260502102626 | 5 | 277 | 0.0 | 0.0 | 0.00 | 0.00 | 0.00 | 1 | 1011.6 |
| 20260502102552 | 5 | 277 | 0.0 | 0.0 | 0.00 | 0.00 | 0.00 | 1 | 1011.6 |
| 20260502102433 | 5 | 277 | 0.0 | 0.0 | 0.00 | 0.00 | 0.00 | 1 | 1011.6 |
| 20260502102326 | 5 | 277 | 0.0 | 0.0 | 0.00 | 0.00 | 0.00 | 1 | 1011.5 |
| 20260502102136 | 5 | 277 | 0.0 | 0.0 | 0.00 | 0.00 | 0.00 | 1 | 1011.4 |
| 20260502102032 | 5 | 277 | 0.0 | 0.0 | 0.00 | 0.00 | 0.00 | 1 | 1011.4 |
| 20260502101915 | 5 | 277 | 0.0 | 0.0 | 0.00 | 0.00 | 0.00 | 1 | 1011.4 |
| 20260502101808 | 5 | 277 | 0.0 | 0.0 | 0.00 | 0.00 | 0.00 | 1 | 1011.3 |
| 20260502101712 | 5 | 277 | 0.0 | 0.0 | 0.00 | 0.00 | 0.00 | 1 | 1011.3 |
| 20260502101446 | 5 | 277 | 0.0 | 0.0 | 0.00 | 0.00 | 0.00 | 1 | 1011.2 |
| 20260502101229 | 5 | 277 | 0.0 | 0.0 | 0.00 | 0.00 | 0.00 | 1 | 1011.2 |
| 20260502101130 | 5 | 277 | 0.0 | 0.0 | 0.00 | 0.00 | 0.00 | 1 | 1011.1 |
| 20260502101032 | 5 | 277 | 0.0 | 0.0 | 0.00 | 0.00 | 0.00 | 1 | 1011.1 |
| 20260502100954 | 5 | 277 | 0.0 | 0.0 | 0.00 | 0.00 | 0.00 | 1 | 1011.1 |
| 20260502100856 | 5 | 277 | 0.0 | 0.0 | 0.00 | 0.00 | 0.00 | 1 | 1011.1 |
| 20260502100759 | 5 | 277 | 0.0 | 0.0 | 0.00 | 0.00 | 0.00 | 1 | 1011.2 |
| 20260502100639 | 5 | 277 | 0.0 | 0.0 | 0.00 | 0.00 | 0.00 | 1 | 1011.3 |
| 20260502100542 | 5 | 277 | 0.0 | 0.0 | 0.00 | 0.00 | 0.00 | 1 | 1011.3 |
| 20260502100442 | 5 | 277 | 0.0 | 0.0 | 0.00 | 0.00 | 0.00 | 1 | 1011.3 |
| 20260502100316 | 5 | 277 | 0.0 | 0.0 | 0.00 | 0.00 | 0.00 | 1 | 1011.2 |
| 20260502100230 | 5 | 277 | 0.0 | 0.0 | 0.00 | 0.00 | 0.00 | 1 | 1011.3 |
| 20260502091526 | 5 | 277 | 0.0 | 3.2 | 0.00 | 0.00 | 0.00 | 1 | 1011.2 |
| 20260502091335 | 5 | 277 | 0.0 | 3.2 | 0.00 | 0.00 | 0.00 | 1 | 1011.1 |
| 20260502091237 | 5 | 277 | 1.6 | 3.2 | 0.00 | 0.00 | 0.00 | 1 | 1011.1 |
| 20260502091143 | 5 | 277 | 1.6 | 3.2 | 0.00 | 0.00 | 0.00 | 1 | 1011.1 |
| 20260502091057 | 5 | 277 | 0.0 | 3.2 | 0.00 | 0.00 | 0.00 | 1 | 1011.1 |
| 20260502090927 | 5 | 277 | 0.0 | 0.0 | 0.00 | 0.00 | 0.00 | 1 | 1011.1 |
| 20260502090827 | 5 | 277 | 0.0 | 0.0 | 0.00 | 0.00 | 0.00 | 1 | 1011.1 |
| 20260502090630 | 5 | 277 | 0.0 | 0.0 | 0.00 | 0.00 | 0.00 | 1 | 1011.2 |
| 20260502090553 | 5 | 277 | 0.0 | 0.0 | 0.00 | 0.00 | 0.00 | 1 | 1011.2 |
| 20260502090436 | 5 | 277 | 0.0 | 0.0 | 0.00 | 0.00 | 0.00 | 1 | 1011.2 |
| 20260502090358 | 5 | 277 | 0.0 | 0.0 | 0.00 | 0.00 | 0.00 | 1 | 1011.2 |
| 20260502090241 | 5 | 277 | 0.0 | 0.0 | 0.00 | 0.00 | 0.00 | 1 | 1011.2 |
| 20260502090203 | 5 | 277 | 0.0 | 0.0 | 0.00 | 0.00 | 0.00 | 1 | 1011.2 |
| 20260502071409 | 5 | 313 | 0.0 | 4.8 | 0.00 | 0.00 | 0.00 | 1 | 1011.4 |
| 20260502071330 | 5 | 313 | 0.0 | 4.8 | 0.00 | 0.00 | 0.00 | 1 | 1011.5 |
| 20260502071134 | 5 | 313 | 1.6 | 4.8 | 0.00 | 0.00 | 0.00 | 1 | 1011.5 |
| 20260502071039 | 5 | 313 | 3.2 | 4.8 | 0.00 | 0.00 | 0.00 | 1 | 1011.5 |
| 20260502070943 | 5 | 313 | 3.2 | 4.8 | 0.00 | 0.00 | 0.00 | 1 | 1011.5 |
| 20260502070844 | 5 | 297 | 1.6 | 4.8 | 0.00 | 0.00 | 0.00 | 1 | 1011.5 |
| 20260502070746 | 5 | 248 | 0.0 | 0.0 | 0.00 | 0.00 | 0.00 | 1 | 1011.5 |
| 20260502070647 | 5 | 248 | 0.0 | 0.0 | 0.00 | 0.00 | 0.00 | 1 | 1011.5 |
| 20260502070608 | 5 | 248 | 0.0 | 0.0 | 0.00 | 0.00 | 0.00 | 1 | 1011.5 |
| 20260502070513 | 5 | 248 | 0.0 | 0.0 | 0.00 | 0.00 | 0.00 | 1 | 1011.5 |
| 20260502070434 | 5 | 248 | 0.0 | 0.0 | 0.00 | 0.00 | 0.00 | 1 | 1011.6 |
| 20260502070304 | 5 | 248 | 0.0 | 0.0 | 0.00 | 0.00 | 0.00 | 1 | 1011.5 |
| 20260502070216 | 5 | 248 | 0.0 | 0.0 | 0.00 | 0.00 | 0.00 | 1 | 1011.5 |
| 20260502070046 | 5 | 248 | 0.0 | 0.0 | 0.00 | 0.00 | 0.00 | 1 | 1011.5 |
| 20260502065931 | 5 | 248 | 0.0 | 0.0 | 0.00 | 0.00 | 0.00 | 1 | 1011.4 |
| 20260502065834 | 5 | 248 | 0.0 | 0.0 | 0.00 | 0.00 | 0.00 | 1 | 1011.5 |
| 20260502065757 | 5 | 248 | 0.0 | 0.0 | 0.00 | 0.00 | 0.00 | 1 | 1011.5 |
| 20260502065718 | 5 | 248 | 0.0 | 0.0 | 0.00 | 0.00 | 0.00 | 1 | 1011.4 |
| 20260502065602 | 5 | 248 | 0.0 | 0.0 | 0.00 | 0.00 | 0.00 | 1 | 1011.4 |
| 20260502065523 | 5 | 248 | 0.0 | 0.0 | 0.00 | 0.00 | 0.00 | 1 | 1011.4 |
| 20260502065327 | 5 | 248 | 0.0 | 0.0 | 0.00 | 0.00 | 0.00 | 1 | 1011.4 |
| 20260502065228 | 5 | 248 | 0.0 | 0.0 | 0.00 | 0.00 | 0.00 | 1 | 1011.4 |
| 20260502065121 | 5 | 248 | 0.0 | 0.0 | 0.00 | 0.00 | 0.00 | 1 | 1011.4 |
| 20260502065048 | 5 | 248 | 0.0 | 0.0 | 0.00 | 0.00 | 0.00 | 1 | 1011.4 |
| 20260502065002 | 5 | 248 | 0.0 | 0.0 | 0.00 | 0.00 | 0.00 | 1 | 1011.4 |
| 20260502064832 | 5 | 248 | 0.0 | 0.0 | 0.00 | 0.00 | 0.00 | 1 | 1011.4 |
| 20260502064731 | 5 | 248 | 0.0 | 0.0 | 0.00 | 0.00 | 0.00 | 1 | 1011.5 |
| 20260502064534 | 5 | 248 | 0.0 | 0.0 | 0.00 | 0.00 | 0.00 | 1 | 1011.4 |
| 20260502064456 | 5 | 248 | 0.0 | 0.0 | 0.00 | 0.00 | 0.00 | 1 | 1011.4 |
| 20260502064340 | 5 | 248 | 0.0 | 0.0 | 0.00 | 0.00 | 0.00 | 1 | 1011.4 |
| 20260502064301 | 5 | 248 | 0.0 | 0.0 | 0.00 | 0.00 | 0.00 | 1 | 1011.4 |
| 20260502064023 | 5 | 248 | 0.0 | 0.0 | 0.00 | 0.00 | 0.00 | 1 | 1011.5 |
| 20260502063950 | 5 | 248 | 0.0 | 0.0 | 0.00 | 0.00 | 0.00 | 1 | 1011.5 |
| 20260502063856 | 5 | 248 | 0.0 | 0.0 | 0.00 | 0.00 | 0.00 | 1 | 1011.4 |
| 20260502063756 | 5 | 248 | 0.0 | 0.0 | 0.00 | 0.00 | 0.00 | 1 | 1011.4 |
| 20260502063626 | 5 | 248 | 0.0 | 0.0 | 0.00 | 0.00 | 0.00 | 1 | 1011.4 |
| 20260502063520 | 5 | 248 | 0.0 | 0.0 | 0.00 | 0.00 | 0.00 | 1 | 1011.3 |
| 20260502063349 | 5 | 248 | 0.0 | 0.0 | 0.00 | 0.00 | 0.00 | 1 | 1011.4 |
| 20260502063250 | 5 | 248 | 0.0 | 0.0 | 0.00 | 0.00 | 0.00 | 1 | 1011.4 |
| 20260502063205 | 5 | 248 | 0.0 | 0.0 | 0.00 | 0.00 | 0.00 | 1 | 1011.4 |
| 20260502063035 | 5 | 248 | 0.0 | 0.0 | 0.00 | 0.00 | 0.00 | 1 | 1011.4 |
| 20260502062935 | 5 | 248 | 0.0 | 0.0 | 0.00 | 0.00 | 0.00 | 1 | 1011.4 |
| 20260502062738 | 5 | 248 | 0.0 | 0.0 | 0.00 | 0.00 | 0.00 | 1 | 1011.4 |
| 20260502062644 | 5 | 248 | 0.0 | 0.0 | 0.00 | 0.00 | 0.00 | 1 | 1011.4 |
| 20260502062549 | 5 | 248 | 0.0 | 0.0 | 0.00 | 0.00 | 0.00 | 1 | 1011.4 |
| 20260502062510 | 5 | 248 | 0.0 | 0.0 | 0.00 | 0.00 | 0.00 | 1 | 1011.4 |
| 20260502062319 | 5 | 248 | 0.0 | 0.0 | 0.00 | 0.00 | 0.00 | 1 | 1011.4 |
| 20260502062234 | 5 | 248 | 0.0 | 0.0 | 0.00 | 0.00 | 0.00 | 1 | 1011.4 |
| 20260502062103 | 5 | 248 | 0.0 | 0.0 | 0.00 | 0.00 | 0.00 | 1 | 1011.4 |
| 20260502062014 | 5 | 248 | 0.0 | 0.0 | 0.00 | 0.00 | 0.00 | 1 | 1011.4 |
| 20260502061838 | 5 | 248 | 0.0 | 0.0 | 0.00 | 0.00 | 0.00 | 1 | 1011.5 |
| 20260502061739 | 5 | 248 | 0.0 | 0.0 | 0.00 | 0.00 | 0.00 | 1 | 1011.4 |
| 20260502061623 | 5 | 248 | 0.0 | 0.0 | 0.00 | 0.00 | 0.00 | 1 | 1011.5 |
| 20260502061544 | 5 | 248 | 0.0 | 0.0 | 0.00 | 0.00 | 0.00 | 1 | 1011.5 |
| 20260502061419 | 5 | 248 | 0.0 | 0.0 | 0.00 | 0.00 | 0.00 | 1 | 1011.4 |
| 20260502061125 | 5 | 248 | 0.0 | 0.0 | 0.00 | 0.00 | 0.00 | 1 | 1011.4 |
| 20260502061041 | 5 | 248 | 0.0 | 0.0 | 0.00 | 0.00 | 0.00 | 1 | 1011.4 |
| 20260502060942 | 5 | 248 | 0.0 | 0.0 | 0.00 | 0.00 | 0.00 | 1 | 1011.4 |
| 20260502060828 | 5 | 248 | 0.0 | 0.0 | 0.00 | 0.00 | 0.00 | 1 | 1011.4 |
| 20260502060748 | 5 | 248 | 0.0 | 0.0 | 0.00 | 0.00 | 0.00 | 1 | 1011.4 |
| 20260502060632 | 5 | 248 | 0.0 | 0.0 | 0.00 | 0.00 | 0.00 | 1 | 1011.4 |
| 20260502060555 | 5 | 248 | 0.0 | 0.0 | 0.00 | 0.00 | 0.00 | 1 | 1011.4 |
| 20260502060517 | 5 | 248 | 0.0 | 0.0 | 0.00 | 0.00 | 0.00 | 1 | 1011.4 |
| 20260502060324 | 5 | 248 | 0.0 | 0.0 | 0.00 | 0.00 | 0.00 | 1 | 1011.4 |
| 20260502060246 | 5 | 248 | 0.0 | 0.0 | 0.00 | 0.00 | 0.00 | 1 | 1011.4 |
| 20260502060131 | 5 | 248 | 0.0 | 0.0 | 0.00 | 0.00 | 0.00 | 1 | 1011.5 |
| 20260502060053 | 5 | 248 | 0.0 | 0.0 | 0.00 | 0.00 | 0.00 | 1 | 1011.5 |
| 20260502060015 | 5 | 248 | 0.0 | 0.0 | 0.00 | 0.00 | 0.00 | 1 | 1011.4 |
| 20260502055837 | 5 | 248 | 0.0 | 0.0 | 0.00 | 0.00 | 0.00 | 1 | 1011.5 |
| 20260502055759 | 5 | 248 | 0.0 | 0.0 | 0.00 | 0.00 | 0.00 | 1 | 1011.5 |
| 20260502055714 | 5 | 248 | 0.0 | 0.0 | 0.00 | 0.00 | 0.00 | 1 | 1011.5 |
| 20260502055544 | 5 | 248 | 0.0 | 0.0 | 0.00 | 0.00 | 0.00 | 1 | 1011.4 |
| 20260502055444 | 5 | 248 | 0.0 | 0.0 | 0.00 | 0.00 | 0.00 | 1 | 1011.4 |
| 20260502055331 | 5 | 248 | 0.0 | 0.0 | 0.00 | 0.00 | 0.00 | 1 | 1011.5 |
| 20260502055253 | 5 | 248 | 0.0 | 0.0 | 0.00 | 0.00 | 0.00 | 1 | 1011.5 |
| 20260502055215 | 5 | 248 | 0.0 | 0.0 | 0.00 | 0.00 | 0.00 | 1 | 1011.5 |
| 20260502055039 | 5 | 248 | 0.0 | 0.0 | 0.00 | 0.00 | 0.00 | 1 | 1011.5 |
| 20260502054940 | 5 | 248 | 0.0 | 0.0 | 0.00 | 0.00 | 0.00 | 1 | 1011.4 |
| 20260502054824 | 5 | 248 | 0.0 | 0.0 | 0.00 | 0.00 | 0.00 | 1 | 1011.5 |
| 20260502054746 | 5 | 248 | 0.0 | 0.0 | 0.00 | 0.00 | 0.00 | 1 | 1011.5 |
| 20260502054642 | 5 | 248 | 0.0 | 0.0 | 0.00 | 0.00 | 0.00 | 1 | 1011.5 |
| 20260502054524 | 5 | 248 | 0.0 | 0.0 | 0.00 | 0.00 | 0.00 | 1 | 1011.4 |
| 20260502054451 | 5 | 248 | 0.0 | 0.0 | 0.00 | 0.00 | 0.00 | 1 | 1011.4 |
| 20260502054412 | 5 | 248 | 0.0 | 0.0 | 0.00 | 0.00 | 0.00 | 1 | 1011.5 |
| 20260502054220 | 5 | 248 | 0.0 | 0.0 | 0.00 | 0.00 | 0.00 | 1 | 1011.4 |
| 20260502054135 | 5 | 248 | 0.0 | 0.0 | 0.00 | 0.00 | 0.00 | 1 | 1011.4 |
| 20260502053924 | 5 | 248 | 0.0 | 0.0 | 0.00 | 0.00 | 0.00 | 1 | 1011.5 |
| 20260502053840 | 5 | 248 | 0.0 | 0.0 | 0.00 | 0.00 | 0.00 | 1 | 1011.5 |
| 20260502053709 | 5 | 248 | 0.0 | 0.0 | 0.00 | 0.00 | 0.00 | 1 | 1011.4 |
| 20260502053631 | 5 | 248 | 0.0 | 0.0 | 0.00 | 0.00 | 0.00 | 1 | 1011.4 |
| 20260502053433 | 5 | 248 | 0.0 | 0.0 | 0.00 | 0.00 | 0.00 | 1 | 1011.4 |
| 20260502053355 | 5 | 248 | 0.0 | 0.0 | 0.00 | 0.00 | 0.00 | 1 | 1011.4 |
| 20260502053223 | 5 | 248 | 0.0 | 0.0 | 0.00 | 0.00 | 0.00 | 1 | 1011.4 |
| 20260502053139 | 5 | 248 | 0.0 | 0.0 | 0.00 | 0.00 | 0.00 | 1 | 1011.4 |
| 20260502052928 | 5 | 248 | 0.0 | 0.0 | 0.00 | 0.00 | 0.00 | 1 | 1011.5 |
| 20260502052842 | 5 | 248 | 0.0 | 0.0 | 0.00 | 0.00 | 0.00 | 1 | 1011.5 |
| 20260502052743 | 5 | 248 | 0.0 | 0.0 | 0.00 | 0.00 | 0.00 | 1 | 1011.5 |
| 20260502052637 | 5 | 248 | 0.0 | 0.0 | 0.00 | 0.00 | 0.00 | 1 | 1011.5 |
| 20260502052558 | 5 | 248 | 0.0 | 0.0 | 0.00 | 0.00 | 0.00 | 1 | 1011.6 |
| 20260502052407 | 5 | 248 | 0.0 | 0.0 | 0.00 | 0.00 | 0.00 | 1 | 1011.6 |
| 20260502052223 | 5 | 248 | 0.0 | 1.6 | 0.00 | 0.00 | 0.00 | 1 | 1011.6 |
| 20260502052125 | 5 | 248 | 0.0 | 1.6 | 0.00 | 0.00 | 0.00 | 1 | 1011.6 |
| 20260502052048 | 5 | 248 | 0.0 | 1.6 | 0.00 | 0.00 | 0.00 | 1 | 1011.6 |
| 20260502052008 | 5 | 248 | 0.0 | 1.6 | 0.00 | 0.00 | 0.00 | 1 | 1011.6 |
| 20260502051912 | 5 | 248 | 0.0 | 1.6 | 0.00 | 0.00 | 0.00 | 1 | 1011.6 |
| 20260502051833 | 5 | 248 | 0.0 | 1.6 | 0.00 | 0.00 | 0.00 | 1 | 1011.6 |
| 20260502051637 | 5 | 248 | 0.0 | 3.2 | 0.00 | 0.00 | 0.00 | 1 | 1011.6 |
| 20260502051538 | 5 | 248 | 0.0 | 3.2 | 0.00 | 0.00 | 0.00 | 1 | 1011.6 |
| 20260502051424 | 5 | 248 | 0.0 | 3.2 | 0.00 | 0.00 | 0.00 | 1 | 1011.6 |
| 20260502051349 | 5 | 248 | 0.0 | 3.2 | 0.00 | 0.00 | 0.00 | 1 | 1011.6 |
| 20260502051212 | 5 | 248 | 0.0 | 3.2 | 0.00 | 0.00 | 0.00 | 1 | 1011.7 |
| 20260502051134 | 5 | 248 | 0.0 | 3.2 | 0.00 | 0.00 | 0.00 | 1 | 1011.7 |
| 20260502050944 | 5 | 248 | 1.6 | 3.2 | 0.00 | 0.00 | 0.00 | 1 | 1011.6 |
| 20260502050838 | 5 | 262 | 1.6 | 4.8 | 0.00 | 0.00 | 0.00 | 1 | 1011.7 |
| 20260502050723 | 5 | 305 | 1.6 | 4.8 | 0.00 | 0.00 | 0.00 | 1 | 1011.7 |
| 20260502050645 | 5 | 323 | 0.0 | 4.8 | 0.00 | 0.00 | 0.00 | 1 | 1011.6 |
| 20260502050402 | 5 | 323 | 0.0 | 4.8 | 0.00 | 0.00 | 0.00 | 1 | 1011.6 |
| 20260502050316 | 5 | 323 | 0.0 | 4.8 | 0.00 | 0.00 | 0.00 | 1 | 1011.6 |
| 20260502050129 | 5 | 323 | 3.2 | 4.8 | 0.00 | 0.00 | 0.00 | 1 | 1011.6 |
| 20260502050041 | 5 | 323 | 1.6 | 4.8 | 0.00 | 0.00 | 0.00 | 1 | 1011.6 |
| 20260502045906 | 5 | 325 | 0.0 | 3.2 | 0.00 | 0.00 | 0.00 | 1 | 1011.6 |
| 20260502045827 | 5 | 325 | 0.0 | 3.2 | 0.00 | 0.00 | 0.00 | 1 | 1011.5 |
| 20260502045629 | 5 | 325 | 1.6 | 3.2 | 0.00 | 0.00 | 0.00 | 1 | 1011.6 |
| 20260502045552 | 5 | 325 | 0.0 | 3.2 | 0.00 | 0.00 | 0.00 | 1 | 1011.6 |
| 20260502045457 | 5 | 328 | 1.6 | 3.2 | 0.00 | 0.00 | 0.00 | 1 | 1011.5 |
| 20260502045337 | 5 | 328 | 1.6 | 3.2 | 0.00 | 0.00 | 0.00 | 1 | 1011.5 |
| 20260502045240 | 5 | 328 | 1.6 | 3.2 | 0.00 | 0.00 | 0.00 | 1 | 1011.5 |
| 20260502045142 | 5 | 328 | 0.0 | 1.6 | 0.00 | 0.00 | 0.00 | 1 | 1011.5 |
| 20260502045107 | 6 | 328 | 0.0 | 0.0 | 0.00 | 0.00 | 0.00 | 1 | 1011.4 |
| 20260502044951 | 6 | 328 | 0.0 | 0.0 | 0.00 | 0.00 | 0.00 | 1 | 1011.4 |
| 20260502044912 | 6 | 328 | 0.0 | 0.0 | 0.00 | 0.00 | 0.00 | 1 | 1011.5 |
| 20260502044648 | 5 | 328 | 0.0 | 0.0 | 0.00 | 0.00 | 0.00 | 1 | 1011.5 |
| 20260502044523 | 5 | 328 | 0.0 | 0.0 | 0.00 | 0.00 | 0.00 | 1 | 1011.5 |
| 20260502044427 | 5 | 328 | 0.0 | 1.6 | 0.00 | 0.00 | 0.00 | 1 | 1011.5 |
| 20260502044348 | 5 | 328 | 0.0 | 3.2 | 0.00 | 0.00 | 0.00 | 1 | 1011.5 |
| 20260502044129 | 5 | 328 | 0.0 | 3.2 | 0.00 | 0.00 | 0.00 | 1 | 1011.5 |
| 20260502044030 | 5 | 328 | 0.0 | 3.2 | 0.00 | 0.00 | 0.00 | 1 | 1011.5 |
| 20260502043937 | 5 | 328 | 0.0 | 3.2 | 0.00 | 0.00 | 0.00 | 1 | 1011.5 |
| 20260502043821 | 5 | 328 | 0.0 | 3.2 | 0.00 | 0.00 | 0.00 | 1 | 1011.5 |
| 20260502043625 | 5 | 328 | 1.6 | 3.2 | 0.00 | 0.00 | 0.00 | 1 | 1011.5 |
| 20260502043548 | 5 | 328 | 0.0 | 3.2 | 0.00 | 0.00 | 0.00 | 1 | 1011.5 |
| 20260502043432 | 5 | 328 | 1.6 | 3.2 | 0.00 | 0.00 | 0.00 | 1 | 1011.4 |
| 20260502043354 | 5 | 328 | 1.6 | 3.2 | 0.00 | 0.00 | 0.00 | 1 | 1011.5 |
| 20260502043136 | 5 | 329 | 1.6 | 3.2 | 0.00 | 0.00 | 0.00 | 1 | 1011.5 |
| 20260502043058 | 5 | 331 | 1.6 | 3.2 | 0.00 | 0.00 | 0.00 | 1 | 1011.5 |
| 20260502042924 | 5 | 342 | 1.6 | 3.2 | 0.00 | 0.00 | 0.00 | 1 | 1011.4 |
| 20260502042847 | 5 | 342 | 1.6 | 3.2 | 0.00 | 0.00 | 0.00 | 1 | 1011.4 |
| 20260502042742 | 5 | 342 | 1.6 | 3.2 | 0.00 | 0.00 | 0.00 | 1 | 1011.4 |
| 20260502042636 | 5 | 342 | 1.6 | 3.2 | 0.00 | 0.00 | 0.00 | 1 | 1011.6 |
| 20260502042538 | 5 | 342 | 1.6 | 3.2 | 0.00 | 0.00 | 0.00 | 1 | 1011.6 |
| 20260502042422 | 5 | 342 | 0.0 | 1.6 | 0.00 | 0.00 | 0.00 | 1 | 1011.6 |
| 20260502042345 | 5 | 342 | 0.0 | 1.6 | 0.00 | 0.00 | 0.00 | 1 | 1011.6 |
| 20260502042300 | 5 | 342 | 0.0 | 1.6 | 0.00 | 0.00 | 0.00 | 1 | 1011.6 |
| 20260502042124 | 5 | 342 | 0.0 | 1.6 | 0.00 | 0.00 | 0.00 | 1 | 1011.4 |
| 20260502041928 | 5 | 342 | 0.0 | 1.6 | 0.00 | 0.00 | 0.00 | 1 | 1011.5 |
| 20260502041829 | 5 | 342 | 0.0 | 1.6 | 0.00 | 0.00 | 0.00 | 1 | 1011.4 |
| 20260502041733 | 5 | 342 | 1.6 | 1.6 | 0.00 | 0.00 | 0.00 | 1 | 1011.4 |
| 20260502041655 | 5 | 342 | 1.6 | 1.6 | 0.00 | 0.00 | 0.00 | 1 | 1011.4 |
| 20260502041616 | 5 | 342 | 1.6 | 1.6 | 0.00 | 0.00 | 0.00 | 1 | 1011.4 |
| 20260502041418 | 5 | 342 | 1.6 | 1.6 | 0.00 | 0.00 | 0.00 | 1 | 1011.4 |
| 20260502041352 | 5 | 342 | 0.0 | 1.6 | 0.00 | 0.00 | 0.00 | 1 | 1011.4 |
| 20260502041235 | 5 | 342 | 0.0 | 0.0 | 0.00 | 0.00 | 0.00 | 1 | 1011.6 |
| 20260502041200 | 5 | 342 | 0.0 | 0.0 | 0.00 | 0.00 | 0.00 | 1 | 1011.5 |
| 20260502041009 | 5 | 342 | 0.0 | 0.0 | 0.00 | 0.00 | 0.00 | 1 | 1011.5 |
| 20260502040923 | 5 | 342 | 0.0 | 0.0 | 0.00 | 0.00 | 0.00 | 1 | 1011.5 |
| 20260502040733 | 5 | 342 | 0.0 | 0.0 | 0.00 | 0.00 | 0.00 | 1 | 1011.4 |
| 20260502040627 | 5 | 342 | 0.0 | 1.6 | 0.00 | 0.00 | 0.00 | 1 | 1011.4 |
| 20260502040559 | 5 | 342 | 0.0 | 1.6 | 0.00 | 0.00 | 0.00 | 1 | 1011.4 |
| 20260502040504 | 5 | 342 | 0.0 | 3.2 | 0.00 | 0.00 | 0.00 | 1 | 1011.4 |
| 20260502040424 | 5 | 342 | 0.0 | 3.2 | 0.00 | 0.00 | 0.00 | 1 | 1011.4 |
| 20260502040135 | 5 | 342 | 0.0 | 3.2 | 0.00 | 0.00 | 0.00 | 1 | 1011.4 |
| 20260502040042 | 5 | 342 | 0.0 | 3.2 | 0.00 | 0.00 | 0.00 | 1 | 1011.4 |
| 20260502035924 | 5 | 342 | 0.0 | 3.2 | 0.00 | 0.00 | 0.00 | 1 | 1011.4 |
| 20260502035845 | 5 | 342 | 0.0 | 3.2 | 0.00 | 0.00 | 0.00 | 1 | 1011.4 |
| 20260502035627 | 5 | 342 | 1.6 | 4.8 | 0.00 | 0.00 | 0.00 | 1 | 1011.4 |
| 20260502035550 | 5 | 342 | 1.6 | 4.8 | 0.00 | 0.00 | 0.00 | 1 | 1011.4 |
| 20260502035433 | 5 | 342 | 0.0 | 4.8 | 0.00 | 0.00 | 0.00 | 1 | 1011.4 |
| 20260502035333 | 5 | 342 | 0.0 | 4.8 | 0.00 | 0.00 | 0.00 | 1 | 1011.4 |
| 20260502035258 | 5 | 342 | 0.0 | 6.4 | 0.00 | 0.00 | 0.00 | 1 | 1011.4 |
| 20260502035124 | 5 | 342 | 1.6 | 6.4 | 0.00 | 0.00 | 0.00 | 1 | 1011.4 |
| 20260502035038 | 5 | 342 | 1.6 | 6.4 | 0.00 | 0.00 | 0.00 | 1 | 1011.4 |
| 20260502034940 | 5 | 342 | 3.2 | 6.4 | 0.00 | 0.00 | 0.00 | 1 | 1011.4 |
| 20260502034823 | 5 | 338 | 4.8 | 6.4 | 0.00 | 0.00 | 0.00 | 1 | 1011.3 |
| 20260502034745 | 5 | 338 | 4.8 | 6.4 | 0.00 | 0.00 | 0.00 | 1 | 1011.3 |
| 20260502034639 | 5 | 338 | 4.8 | 6.4 | 0.00 | 0.00 | 0.00 | 1 | 1011.3 |
| 20260502034524 | 5 | 338 | 4.8 | 6.4 | 0.00 | 0.00 | 0.00 | 1 | 1011.3 |
| 20260502034448 | 5 | 340 | 3.2 | 6.4 | 0.00 | 0.00 | 0.00 | 1 | 1011.3 |
| 20260502034409 | 5 | 360 | 3.2 | 4.8 | 0.00 | 0.00 | 0.00 | 1 | 1011.3 |
| 20260502034235 | 5 | 360 | 3.2 | 4.8 | 0.00 | 0.00 | 0.00 | 1 | 1011.4 |
| 20260502034156 | 5 | 360 | 3.2 | 4.8 | 0.00 | 0.00 | 0.00 | 1 | 1011.3 |
| 20260502034038 | 5 | 360 | 1.6 | 4.8 | 0.00 | 0.00 | 0.00 | 1 | 1011.4 |
| 20260502033948 | 5 | 360 | 1.6 | 3.2 | 0.00 | 0.00 | 0.00 | 1 | 1011.4 |
| 20260502033910 | 5 | 360 | 1.6 | 3.2 | 0.00 | 0.00 | 0.00 | 1 | 1011.4 |
| 20260502033710 | 5 | 360 | 1.6 | 3.2 | 0.00 | 0.00 | 0.00 | 1 | 1011.3 |
| 20260502033542 | 5 | 360 | 1.6 | 3.2 | 0.00 | 0.00 | 0.00 | 1 | 1011.3 |
| 20260502033425 | 5 | 360 | 1.6 | 3.2 | 0.00 | 0.00 | 0.00 | 1 | 1011.3 |
| 20260502033348 | 5 | 360 | 1.6 | 3.2 | 0.00 | 0.00 | 0.00 | 1 | 1011.3 |
| 20260502033218 | 5 | 360 | 0.0 | 3.2 | 0.00 | 0.00 | 0.00 | 1 | 1011.3 |
| 20260502033137 | 5 | 360 | 1.6 | 3.2 | 0.00 | 0.00 | 0.00 | 1 | 1011.3 |
| 20260502032923 | 5 | 360 | 1.6 | 3.2 | 0.00 | 0.00 | 0.00 | 1 | 1011.4 |
| 20260502032845 | 5 | 360 | 0.0 | 1.6 | 0.00 | 0.00 | 0.00 | 1 | 1011.4 |
| 20260502032750 | 5 | 360 | 0.0 | 0.0 | 0.00 | 0.00 | 0.00 | 1 | 1011.3 |
| 20260502032650 | 5 | 360 | 0.0 | 0.0 | 0.00 | 0.00 | 0.00 | 1 | 1011.4 |
| 20260502032458 | 5 | 360 | 0.0 | 0.0 | 0.00 | 0.00 | 0.00 | 1 | 1011.4 |
| 20260502032353 | 5 | 360 | 0.0 | 0.0 | 0.00 | 0.00 | 0.00 | 1 | 1011.4 |
| 20260502032314 | 5 | 360 | 0.0 | 0.0 | 0.00 | 0.00 | 0.00 | 1 | 1011.4 |
| 20260502032126 | 5 | 360 | 0.0 | 0.0 | 0.00 | 0.00 | 0.00 | 1 | 1011.4 |
| 20260502032040 | 5 | 360 | 0.0 | 0.0 | 0.00 | 0.00 | 0.00 | 1 | 1011.4 |
| 20260502031940 | 5 | 360 | 0.0 | 0.0 | 0.00 | 0.00 | 0.00 | 1 | 1011.4 |
| 20260502031848 | 5 | 360 | 0.0 | 0.0 | 0.00 | 0.00 | 0.00 | 1 | 1011.4 |
| 20260502031809 | 5 | 360 | 0.0 | 0.0 | 0.00 | 0.00 | 0.00 | 1 | 1011.4 |
| 20260502031628 | 5 | 360 | 0.0 | 1.6 | 0.00 | 0.00 | 0.00 | 1 | 1011.4 |
| 20260502031521 | 5 | 360 | 0.0 | 1.6 | 0.00 | 0.00 | 0.00 | 1 | 1011.4 |
| 20260502031332 | 5 | 360 | 0.0 | 1.6 | 0.00 | 0.00 | 0.00 | 1 | 1011.4 |
| 20260502031245 | 5 | 360 | 0.0 | 1.6 | 0.00 | 0.00 | 0.00 | 1 | 1011.4 |
| 20260502031054 | 5 | 360 | 0.0 | 1.6 | 0.00 | 0.00 | 0.00 | 1 | 1011.4 |
| 20260502030955 | 5 | 360 | 0.0 | 1.6 | 0.00 | 0.00 | 0.00 | 1 | 1011.4 |
| 20260502030918 | 5 | 360 | 0.0 | 1.6 | 0.00 | 0.00 | 0.00 | 1 | 1011.4 |
| 20260502030712 | 5 | 360 | 0.0 | 1.6 | 0.00 | 0.00 | 0.00 | 1 | 1011.4 |
| 20260502030628 | 5 | 360 | 0.0 | 1.6 | 0.00 | 0.00 | 0.00 | 1 | 1011.4 |
| 20260502030523 | 5 | 360 | 0.0 | 0.0 | 0.00 | 0.00 | 0.00 | 1 | 1011.5 |
| 20260502030444 | 5 | 360 | 0.0 | 0.0 | 0.00 | 0.00 | 0.00 | 1 | 1011.5 |
| 20260502030314 | 5 | 360 | 0.0 | 0.0 | 0.00 | 0.00 | 0.00 | 1 | 1011.4 |
| 20260502030146 | 5 | 360 | 0.0 | 0.0 | 0.00 | 0.00 | 0.00 | 1 | 1011.4 |
| 20260502030107 | 5 | 360 | 0.0 | 0.0 | 0.00 | 0.00 | 0.00 | 1 | 1011.4 |
| 20260502030007 | 5 | 360 | 0.0 | 0.0 | 0.00 | 0.00 | 0.00 | 1 | 1011.4 |
| 20260502025923 | 5 | 360 | 0.0 | 0.0 | 0.00 | 0.00 | 0.00 | 1 | 1011.4 |
| 20260502025823 | 5 | 360 | 0.0 | 0.0 | 0.00 | 0.00 | 0.00 | 1 | 1011.4 |
| 20260502025653 | 5 | 360 | 0.0 | 0.0 | 0.00 | 0.00 | 0.00 | 1 | 1011.4 |
| 20260502025556 | 5 | 360 | 0.0 | 0.0 | 0.00 | 0.00 | 0.00 | 1 | 1011.4 |
| 20260502025513 | 5 | 360 | 0.0 | 0.0 | 0.00 | 0.00 | 0.00 | 1 | 1011.5 |
| 20260502025300 | 5 | 360 | 0.0 | 0.0 | 0.00 | 0.00 | 0.00 | 1 | 1011.5 |
| 20260502025221 | 5 | 360 | 0.0 | 0.0 | 0.00 | 0.00 | 0.00 | 1 | 1011.5 |
| 20260502025137 | 5 | 360 | 0.0 | 0.0 | 0.00 | 0.00 | 0.00 | 1 | 1011.5 |
| 20260502025038 | 5 | 360 | 0.0 | 0.0 | 0.00 | 0.00 | 0.00 | 1 | 1011.5 |
| 20260502024938 | 5 | 360 | 0.0 | 0.0 | 0.00 | 0.00 | 0.00 | 1 | 1011.5 |
| 20260502024744 | 5 | 360 | 0.0 | 0.0 | 0.00 | 0.00 | 0.00 | 1 | 1011.5 |
| 20260502024704 | 5 | 360 | 0.0 | 0.0 | 0.00 | 0.00 | 0.00 | 1 | 1011.5 |
| 20260502024609 | 5 | 360 | 0.0 | 0.0 | 0.00 | 0.00 | 0.00 | 1 | 1011.5 |
| 20260502024530 | 5 | 360 | 0.0 | 1.6 | 0.00 | 0.00 | 0.00 | 1 | 1011.5 |
| 20260502024342 | 5 | 360 | 0.0 | 1.6 | 0.00 | 0.00 | 0.00 | 1 | 1011.5 |
| 20260502024238 | 5 | 360 | 0.0 | 1.6 | 0.00 | 0.00 | 0.00 | 1 | 1011.5 |
| 20260502024122 | 5 | 360 | 0.0 | 1.6 | 0.00 | 0.00 | 0.00 | 1 | 1011.4 |
| 20260502024044 | 5 | 360 | 0.0 | 1.6 | 0.00 | 0.00 | 0.00 | 1 | 1011.4 |
| 20260502024005 | 5 | 360 | 0.0 | 1.6 | 0.00 | 0.00 | 0.00 | 1 | 1011.5 |
| 20260502023919 | 5 | 360 | 0.0 | 1.6 | 0.00 | 0.00 | 0.00 | 1 | 1011.4 |
| 20260502023841 | 5 | 360 | 0.0 | 3.2 | 0.00 | 0.00 | 0.00 | 1 | 1011.4 |
| 20260502023711 | 5 | 360 | 0.0 | 3.2 | 0.00 | 0.00 | 0.00 | 1 | 1011.4 |
| 20260502023626 | 5 | 360 | 0.0 | 3.2 | 0.00 | 0.00 | 0.00 | 1 | 1011.4 |
| 20260502023436 | 5 | 360 | 0.0 | 4.8 | 0.00 | 0.00 | 0.00 | 1 | 1011.5 |
| 20260502023352 | 5 | 360 | 0.0 | 4.8 | 0.00 | 0.00 | 0.00 | 1 | 1011.5 |
| 20260502023225 | 5 | 360 | 1.6 | 4.8 | 0.00 | 0.00 | 0.00 | 1 | 1011.4 |
| 20260502023126 | 5 | 360 | 1.6 | 4.8 | 0.00 | 0.00 | 0.00 | 1 | 1011.4 |
| 20260502022930 | 5 | 360 | 3.2 | 4.8 | 0.00 | 0.00 | 0.00 | 1 | 1011.4 |
| 20260502022852 | 5 | 360 | 3.2 | 4.8 | 0.00 | 0.00 | 0.00 | 1 | 1011.4 |
| 20260502022736 | 5 | 360 | 1.6 | 4.8 | 0.00 | 0.00 | 0.00 | 1 | 1011.4 |
| 20260502022657 | 5 | 360 | 0.0 | 3.2 | 0.00 | 0.00 | 0.00 | 1 | 1011.4 |
| 20260502022527 | 5 | 360 | 0.0 | 0.0 | 0.00 | 0.00 | 0.00 | 1 | 1011.5 |
| 20260502022420 | 5 | 360 | 0.0 | 0.0 | 0.00 | 0.00 | 0.00 | 1 | 1011.4 |
| 20260502022237 | 5 | 360 | 0.0 | 0.0 | 0.00 | 0.00 | 0.00 | 1 | 1011.4 |
| 20260502022136 | 5 | 360 | 0.0 | 0.0 | 0.00 | 0.00 | 0.00 | 1 | 1011.4 |
| 20260502022059 | 5 | 360 | 0.0 | 0.0 | 0.00 | 0.00 | 0.00 | 1 | 1011.4 |
| 20260502021942 | 5 | 360 | 0.0 | 0.0 | 0.00 | 0.00 | 0.00 | 1 | 1011.5 |
| 20260502021905 | 5 | 360 | 0.0 | 0.0 | 0.00 | 0.00 | 0.00 | 1 | 1011.5 |
| 20260502021818 | 5 | 360 | 0.0 | 0.0 | 0.00 | 0.00 | 0.00 | 1 | 1011.5 |
| 20260502021650 | 5 | 360 | 0.0 | 0.0 | 0.00 | 0.00 | 0.00 | 1 | 1011.5 |
| 20260502021550 | 5 | 360 | 0.0 | 0.0 | 0.00 | 0.00 | 0.00 | 1 | 1011.5 |
| 20260502021422 | 5 | 360 | 0.0 | 0.0 | 0.00 | 0.00 | 0.00 | 3 | 1011.6 |
| 20260502021335 | 5 | 360 | 0.0 | 0.0 | 0.00 | 0.00 | 0.00 | 5 | 1011.6 |
| 20260502021124 | 5 | 360 | 0.0 | 0.0 | 0.00 | 0.00 | 0.00 | 4 | 1011.6 |
| 20260502021039 | 5 | 360 | 0.0 | 0.0 | 0.00 | 0.00 | 0.00 | 4 | 1011.6 |
| 20260502020913 | 5 | 360 | 0.0 | 0.0 | 0.00 | 0.00 | 0.00 | 3 | 1011.6 |
| 20260502020834 | 5 | 360 | 0.0 | 0.0 | 0.00 | 0.00 | 0.00 | 3 | 1011.6 |
| 20260502020638 | 6 | 360 | 0.0 | 0.0 | 0.00 | 0.00 | 0.00 | 4 | 1011.6 |
| 20260502020600 | 6 | 360 | 0.0 | 0.0 | 0.00 | 0.00 | 0.00 | 4 | 1011.6 |
| 20260502020442 | 6 | 360 | 0.0 | 0.0 | 0.00 | 0.00 | 0.00 | 4 | 1011.6 |
| 20260502020404 | 6 | 360 | 0.0 | 0.0 | 0.00 | 0.00 | 0.00 | 4 | 1011.6 |
| 20260502020317 | 6 | 360 | 0.0 | 0.0 | 0.00 | 0.00 | 0.00 | 5 | 1011.6 |
| 20260502020127 | 6 | 360 | 0.0 | 0.0 | 0.00 | 0.00 | 0.00 | 4 | 1011.5 |
| 20260502020040 | 6 | 360 | 0.0 | 0.0 | 0.00 | 0.00 | 0.00 | 4 | 1011.4 |
| 20260502015947 | 6 | 360 | 0.0 | 1.6 | 0.00 | 0.00 | 0.00 | 4 | 1011.4 |
| 20260502015841 | 6 | 360 | 0.0 | 1.6 | 0.00 | 0.00 | 0.00 | 5 | 1011.5 |
| 20260502015801 | 6 | 360 | 0.0 | 1.6 | 0.00 | 0.00 | 0.00 | 6 | 1011.5 |
| 20260502015714 | 6 | 360 | 0.0 | 1.6 | 0.00 | 0.00 | 0.00 | 6 | 1011.5 |
| 20260502015452 | 6 | 360 | 0.0 | 3.2 | 0.00 | 0.00 | 0.00 | 6 | 1011.5 |
| 20260502015353 | 6 | 360 | 0.0 | 3.2 | 0.00 | 0.00 | 0.00 | 6 | 1011.5 |
| 20260502015314 | 6 | 360 | 0.0 | 3.2 | 0.00 | 0.00 | 0.00 | 7 | 1011.6 |
| 20260502015219 | 6 | 360 | 0.0 | 3.2 | 0.00 | 0.00 | 0.00 | 7 | 1011.6 |
| 20260502015140 | 6 | 360 | 0.0 | 3.2 | 0.00 | 0.00 | 0.00 | 7 | 1011.6 |
| 20260502015010 | 6 | 360 | 0.0 | 3.2 | 0.00 | 0.00 | 0.00 | 7 | 1011.5 |
| 20260502014925 | 6 | 360 | 0.0 | 3.2 | 0.00 | 0.00 | 0.00 | 7 | 1011.5 |
| 20260502014738 | 6 | 360 | 1.6 | 3.2 | 0.00 | 0.00 | 0.00 | 5 | 1011.5 |
| 20260502014653 | 6 | 360 | 1.6 | 3.2 | 0.00 | 0.00 | 0.00 | 5 | 1011.5 |
| 20260502014523 | 6 | 360 | 0.0 | 3.2 | 0.00 | 0.00 | 0.00 | 1 | 1011.6 |
| 20260502014444 | 6 | 360 | 0.0 | 3.2 | 0.00 | 0.00 | 0.00 | 1 | 1011.6 |
| 20260502014253 | 6 | 360 | 0.0 | 3.2 | 0.00 | 0.00 | 0.00 | 5 | 1011.6 |
| 20260502014126 | 6 | 360 | 1.6 | 3.2 | 0.00 | 0.00 | 0.00 | 10 | 1011.6 |
| 20260502014048 | 6 | 360 | 1.6 | 3.2 | 0.00 | 0.00 | 0.00 | 14 | 1011.6 |
| 20260502013932 | 6 | 360 | 0.0 | 3.2 | 0.00 | 0.00 | 0.00 | 18 | 1011.6 |
| 20260502013851 | 6 | 360 | 0.0 | 0.0 | 0.00 | 0.00 | 0.00 | 18 | 1011.6 |
| 20260502013732 | 6 | 360 | 0.0 | 0.0 | 0.00 | 0.00 | 0.00 | 19 | 1011.6 |
| 20260502013633 | 6 | 360 | 0.0 | 0.0 | 0.00 | 0.00 | 0.00 | 22 | 1011.6 |
| 20260502013534 | 6 | 360 | 0.0 | 0.0 | 0.00 | 0.00 | 0.00 | 23 | 1011.6 |
| 20260502013432 | 6 | 360 | 0.0 | 0.0 | 0.00 | 0.00 | 0.00 | 23 | 1011.6 |
| 20260502013334 | 6 | 360 | 0.0 | 0.0 | 0.00 | 0.00 | 0.00 | 23 | 1011.6 |
| 20260502013233 | 6 | 360 | 0.0 | 0.0 | 0.00 | 0.00 | 0.00 | 23 | 1011.6 |
| 20260502013134 | 6 | 360 | 0.0 | 0.0 | 0.00 | 0.00 | 0.00 | 22 | 1011.6 |
| 20260502013054 | 6 | 360 | 0.0 | 0.0 | 0.00 | 0.00 | 0.00 | 22 | 1011.6 |
| 20260502013013 | 6 | 360 | 0.0 | 0.0 | 0.00 | 0.00 | 0.00 | 20 | 1011.7 |
| 20260502012914 | 6 | 360 | 0.0 | 0.0 | 0.00 | 0.00 | 0.00 | 20 | 1011.6 |
| 20260502012832 | 6 | 360 | 0.0 | 0.0 | 0.00 | 0.00 | 0.00 | 20 | 1011.6 |
| 20260502012643 | 6 | 360 | 0.0 | 0.0 | 0.00 | 0.00 | 0.00 | 20 | 1011.6 |
| 20260502012536 | 7 | 360 | 0.0 | 0.0 | 0.00 | 0.00 | 0.00 | 20 | 1011.6 |
| 20260502012416 | 7 | 360 | 0.0 | 0.0 | 0.00 | 0.00 | 0.00 | 18 | 1011.6 |
| 20260502012343 | 7 | 360 | 0.0 | 0.0 | 0.00 | 0.00 | 0.00 | 17 | 1011.5 |
| 20260502012210 | 7 | 360 | 0.0 | 0.0 | 0.00 | 0.00 | 0.00 | 17 | 1011.5 |
| 20260502012123 | 7 | 360 | 0.0 | 0.0 | 0.00 | 0.00 | 0.00 | 16 | 1011.6 |
| 20260502011949 | 7 | 360 | 0.0 | 0.0 | 0.00 | 0.00 | 0.00 | 15 | 1011.6 |
| 20260502011848 | 7 | 360 | 0.0 | 0.0 | 0.00 | 0.00 | 0.00 | 15 | 1011.6 |
| 20260502011800 | 7 | 360 | 0.0 | 0.0 | 0.00 | 0.00 | 0.00 | 15 | 1011.6 |
| 20260502011628 | 7 | 360 | 0.0 | 0.0 | 0.00 | 0.00 | 0.00 | 14 | 1011.6 |
| 20260502011524 | 7 | 360 | 0.0 | 0.0 | 0.00 | 0.00 | 0.00 | 14 | 1011.6 |
| 20260502011332 | 7 | 360 | 0.0 | 0.0 | 0.00 | 0.00 | 0.00 | 17 | 1011.6 |
| 20260502011224 | 7 | 360 | 0.0 | 0.0 | 0.00 | 0.00 | 0.00 | 21 | 1011.6 |
| 20260502011132 | 7 | 360 | 0.0 | 0.0 | 0.00 | 0.00 | 0.00 | 23 | 1011.6 |
| 20260502011052 | 7 | 360 | 0.0 | 0.0 | 0.00 | 0.00 | 0.00 | 23 | 1011.6 |
| 20260502010942 | 7 | 360 | 0.0 | 0.0 | 0.00 | 0.00 | 0.00 | 25 | 1011.6 |
| 20260502010904 | 7 | 360 | 0.0 | 0.0 | 0.00 | 0.00 | 0.00 | 25 | 1011.6 |
| 20260502010808 | 7 | 360 | 0.0 | 0.0 | 0.00 | 0.00 | 0.00 | 26 | 1011.6 |
| 20260502010727 | 7 | 360 | 0.0 | 0.0 | 0.00 | 0.00 | 0.00 | 25 | 1011.6 |
| 20260502010535 | 7 | 360 | 0.0 | 0.0 | 0.00 | 0.00 | 0.00 | 26 | 1011.5 |
| 20260502010436 | 7 | 360 | 0.0 | 0.0 | 0.00 | 0.00 | 0.00 | 25 | 1011.5 |
| 20260502010340 | 7 | 360 | 0.0 | 0.0 | 0.00 | 0.00 | 0.00 | 25 | 1011.5 |
| 20260502010302 | 7 | 360 | 0.0 | 0.0 | 0.00 | 0.00 | 0.00 | 24 | 1011.5 |
| 20260502010123 | 7 | 360 | 0.0 | 0.0 | 0.00 | 0.00 | 0.00 | 24 | 1011.5 |
| 20260502010044 | 7 | 360 | 0.0 | 0.0 | 0.00 | 0.00 | 0.00 | 24 | 1011.5 |
| 20260502005914 | 7 | 360 | 0.0 | 0.0 | 0.00 | 0.00 | 0.00 | 28 | 1011.5 |
| 20260502005808 | 7 | 360 | 0.0 | 0.0 | 0.00 | 0.00 | 0.00 | 29 | 1011.5 |
| 20260502005639 | 7 | 360 | 0.0 | 0.0 | 0.00 | 0.00 | 0.00 | 33 | 1011.5 |
| 20260502005539 | 7 | 360 | 0.0 | 0.0 | 0.00 | 0.00 | 0.00 | 33 | 1011.4 |
| 20260502005327 | 7 | 360 | 0.0 | 0.0 | 0.00 | 0.00 | 0.00 | 34 | 1011.4 |
| 20260502005250 | 7 | 360 | 0.0 | 0.0 | 0.00 | 0.00 | 0.00 | 34 | 1011.4 |
| 20260502005134 | 7 | 360 | 0.0 | 0.0 | 0.00 | 0.00 | 0.00 | 33 | 1011.3 |
| 20260502005028 | 7 | 360 | 0.0 | 0.0 | 0.00 | 0.00 | 0.00 | 32 | 1011.3 |
| 20260502005000 | 7 | 360 | 0.0 | 0.0 | 0.00 | 0.00 | 0.00 | 31 | 1011.4 |
| 20260502004900 | 7 | 360 | 0.0 | 0.0 | 0.00 | 0.00 | 0.00 | 31 | 1011.4 |
| 20260502004816 | 7 | 360 | 0.0 | 0.0 | 0.00 | 0.00 | 0.00 | 31 | 1011.3 |
| 20260502004645 | 7 | 360 | 0.0 | 0.0 | 0.00 | 0.00 | 0.00 | 30 | 1011.2 |
| 20260502004546 | 7 | 360 | 0.0 | 0.0 | 0.00 | 0.00 | 0.00 | 29 | 1011.2 |
| 20260502004449 | 7 | 360 | 0.0 | 0.0 | 0.00 | 0.00 | 0.00 | 29 | 1011.1 |
| 20260502004333 | 7 | 360 | 0.0 | 0.0 | 0.00 | 0.00 | 0.00 | 29 | 1011.2 |
| 20260502004256 | 7 | 360 | 0.0 | 0.0 | 0.00 | 0.00 | 0.00 | 29 | 1011.2 |
| 20260502004138 | 7 | 360 | 0.0 | 0.0 | 0.00 | 0.00 | 0.00 | 30 | 1011.1 |
| 20260502004101 | 7 | 360 | 0.0 | 0.0 | 0.00 | 0.00 | 0.00 | 31 | 1011.1 |
| 20260502004015 | 7 | 360 | 0.0 | 0.0 | 0.00 | 0.00 | 0.00 | 31 | 1011.1 |
| 20260502003825 | 7 | 360 | 0.0 | 0.0 | 0.00 | 0.00 | 0.00 | 35 | 1011.1 |
| 20260502003741 | 7 | 360 | 0.0 | 0.0 | 0.00 | 0.00 | 0.00 | 35 | 1011.1 |
| 20260502003642 | 8 | 360 | 0.0 | 1.6 | 0.00 | 0.00 | 0.00 | 35 | 1011.1 |
| 20260502003547 | 8 | 360 | 0.0 | 1.6 | 0.00 | 0.00 | 0.00 | 35 | 1011.1 |
| 20260502003451 | 8 | 360 | 0.0 | 1.6 | 0.00 | 0.00 | 0.00 | 35 | 1011.0 |
| 20260502003233 | 8 | 360 | 0.0 | 1.6 | 0.00 | 0.00 | 0.00 | 34 | 1011.1 |
| 20260502003133 | 8 | 360 | 0.0 | 1.6 | 0.00 | 0.00 | 0.00 | 35 | 1011.0 |
| 20260502003038 | 8 | 360 | 0.0 | 1.6 | 0.00 | 0.00 | 0.00 | 35 | 1011.0 |
| 20260502002959 | 8 | 360 | 0.0 | 1.6 | 0.00 | 0.00 | 0.00 | 36 | 1011.0 |
| 20260502002808 | 8 | 360 | 0.0 | 1.6 | 0.00 | 0.00 | 0.00 | 35 | 1011.0 |
| 20260502002724 | 8 | 360 | 0.0 | 1.6 | 0.00 | 0.00 | 0.00 | 35 | 1011.0 |
| 20260502002535 | 8 | 360 | 0.0 | 1.6 | 0.00 | 0.00 | 0.00 | 34 | 1011.0 |
| 20260502002449 | 8 | 360 | 0.0 | 1.6 | 0.00 | 0.00 | 0.00 | 33 | 1011.0 |
| 20260502002245 | 8 | 360 | 0.0 | 1.6 | 0.00 | 0.00 | 0.00 | 38 | 1011.0 |
| 20260502002150 | 8 | 360 | 0.0 | 1.6 | 0.00 | 0.00 | 0.00 | 38 | 1011.0 |
| 20260502002111 | 8 | 360 | 0.0 | 1.6 | 0.00 | 0.00 | 0.00 | 39 | 1011.0 |
| 20260502002015 | 8 | 360 | 0.0 | 0.0 | 0.00 | 0.00 | 0.00 | 40 | 1011.0 |
| 20260502001936 | 8 | 360 | 0.0 | 0.0 | 0.00 | 0.00 | 0.00 | 42 | 1010.9 |
| 20260502001806 | 8 | 360 | 0.0 | 0.0 | 0.00 | 0.00 | 0.00 | 44 | 1010.9 |
| 20260502001721 | 8 | 360 | 0.0 | 0.0 | 0.00 | 0.00 | 0.00 | 45 | 1010.9 |
| 20260502001549 | 8 | 360 | 0.0 | 0.0 | 0.00 | 0.00 | 0.00 | 47 | 1010.8 |
| 20260502001450 | 8 | 360 | 0.0 | 0.0 | 0.00 | 0.00 | 0.00 | 47 | 1010.8 |
| 20260502001353 | 8 | 360 | 0.0 | 0.0 | 0.00 | 0.00 | 0.00 | 47 | 1010.9 |
| 20260502001314 | 8 | 360 | 0.0 | 0.0 | 0.00 | 0.00 | 0.00 | 47 | 1010.9 |
| 20260502001144 | 8 | 360 | 0.0 | 0.0 | 0.00 | 0.00 | 0.00 | 47 | 1010.8 |
| 20260502001037 | 8 | 360 | 0.0 | 0.0 | 0.00 | 0.00 | 0.00 | 47 | 1010.8 |
| 20260502000908 | 8 | 360 | 0.0 | 0.0 | 0.00 | 0.00 | 0.00 | 47 | 1010.8 |
| 20260502000834 | 8 | 360 | 0.0 | 0.0 | 0.00 | 0.00 | 0.00 | 47 | 1010.8 |
| 20260502000638 | 8 | 360 | 0.0 | 1.6 | 0.00 | 0.00 | 0.00 | 48 | 1010.7 |
| 20260502000539 | 8 | 360 | 0.0 | 1.6 | 0.00 | 0.00 | 0.00 | 49 | 1010.7 |
| 20260502000424 | 9 | 360 | 0.0 | 1.6 | 0.00 | 0.00 | 0.00 | 49 | 1010.6 |
| 20260502000344 | 9 | 360 | 0.0 | 1.6 | 0.00 | 0.00 | 0.00 | 49 | 1010.7 |
| 20260502000226 | 9 | 360 | 0.0 | 1.6 | 0.00 | 0.00 | 0.00 | 50 | 1010.6 |
| 20260502000147 | 9 | 360 | 0.0 | 1.6 | 0.00 | 0.00 | 0.00 | 50 | 1010.6 |
| 20260502000108 | 9 | 360 | 0.0 | 1.6 | 0.00 | 0.00 | 0.00 | 50 | 1010.6 |
| 20260501235929 | 9 | 360 | 0.0 | 0.0 | 0.00 | 0.00 | 0.00 | 50 | 1010.6 |
| 20260501235856 | 9 | 360 | 0.0 | 0.0 | 0.00 | 0.00 | 0.00 | 50 | 1010.6 |
| 20260501235818 | 9 | 360 | 0.0 | 0.0 | 0.00 | 0.00 | 0.00 | 51 | 1010.6 |
| 20260501235722 | 9 | 360 | 0.0 | 1.6 | 0.00 | 0.00 | 0.00 | 51 | 1010.6 |
| 20260501235643 | 9 | 360 | 0.0 | 1.6 | 0.00 | 0.00 | 0.00 | 52 | 1010.6 |
| 20260501235438 | 9 | 360 | 0.0 | 1.6 | 0.00 | 0.00 | 0.00 | 53 | 1010.6 |
| 20260501235339 | 9 | 360 | 0.0 | 1.6 | 0.00 | 0.00 | 0.00 | 53 | 1010.6 |
| 20260501235231 | 9 | 360 | 0.0 | 1.6 | 0.00 | 0.00 | 0.00 | 53 | 1010.6 |
| 20260501235154 | 10 | 360 | 0.0 | 1.6 | 0.00 | 0.00 | 0.00 | 53 | 1010.6 |
| 20260501235116 | 10 | 360 | 0.0 | 1.6 | 0.00 | 0.00 | 0.00 | 54 | 1010.6 |
| 20260501234938 | 10 | 360 | 0.0 | 1.6 | 0.00 | 0.00 | 0.00 | 54 | 1010.6 |
| 20260501234905 | 10 | 360 | 0.0 | 1.6 | 0.00 | 0.00 | 0.00 | 54 | 1010.6 |
| 20260501234818 | 10 | 360 | 0.0 | 3.2 | 0.00 | 0.00 | 0.00 | 53 | 1010.5 |
| 20260501234629 | 10 | 360 | 0.0 | 3.2 | 0.00 | 0.00 | 0.00 | 54 | 1010.5 |
| 20260501234543 | 10 | 360 | 0.0 | 3.2 | 0.00 | 0.00 | 0.00 | 53 | 1010.5 |
| 20260501234413 | 10 | 360 | 0.0 | 3.2 | 0.00 | 0.00 | 0.00 | 53 | 1010.5 |
| 20260501234334 | 10 | 360 | 0.0 | 3.2 | 0.00 | 0.00 | 0.00 | 52 | 1010.4 |
| 20260501234204 | 10 | 360 | 1.6 | 3.2 | 0.00 | 0.00 | 0.00 | 49 | 1010.4 |
| 20260501234037 | 10 | 360 | 1.6 | 3.2 | 0.00 | 0.00 | 0.00 | 49 | 1010.4 |
| 20260501233959 | 10 | 360 | 1.6 | 3.2 | 0.00 | 0.00 | 0.00 | 50 | 1010.4 |
| 20260501233827 | 10 | 360 | 1.6 | 4.8 | 0.00 | 0.00 | 0.00 | 51 | 1010.4 |
| 20260501233741 | 10 | 360 | 1.6 | 4.8 | 0.00 | 0.00 | 0.00 | 50 | 1010.4 |
| 20260501233613 | 10 | 360 | 1.6 | 4.8 | 0.00 | 0.00 | 0.00 | 49 | 1010.4 |
| 20260501233534 | 10 | 360 | 1.6 | 6.4 | 0.00 | 0.00 | 0.00 | 49 | 1010.4 |
| 20260501233337 | 10 | 360 | 0.0 | 6.4 | 0.00 | 0.00 | 0.00 | 50 | 1010.4 |
| 20260501233259 | 10 | 360 | 1.6 | 6.4 | 0.00 | 0.00 | 0.00 | 50 | 1010.4 |
| 20260501233144 | 10 | 360 | 1.6 | 6.4 | 0.00 | 0.00 | 0.00 | 48 | 1010.4 |
| 20260501233045 | 10 | 360 | 1.6 | 6.4 | 0.00 | 0.00 | 0.00 | 49 | 1010.4 |
| 20260501232941 | 10 | 360 | 1.6 | 6.4 | 0.00 | 0.00 | 0.00 | 48 | 1010.4 |
| 20260501232829 | 10 | 360 | 3.2 | 6.4 | 0.00 | 0.00 | 0.00 | 47 | 1010.3 |
| 20260501232750 | 10 | 360 | 1.6 | 6.4 | 0.00 | 0.00 | 0.00 | 48 | 1010.3 |
| 20260501232623 | 10 | 349 | 1.6 | 6.4 | 0.00 | 0.00 | 0.00 | 48 | 1010.3 |
| 20260501232546 | 10 | 349 | 1.6 | 6.4 | 0.00 | 0.00 | 0.00 | 47 | 1010.3 |
| 20260501232508 | 10 | 349 | 3.2 | 6.4 | 0.00 | 0.00 | 0.00 | 47 | 1010.3 |
| 20260501232337 | 10 | 350 | 3.2 | 4.8 | 0.00 | 0.00 | 0.00 | 46 | 1010.3 |
| 20260501232230 | 10 | 355 | 3.2 | 4.8 | 0.00 | 0.00 | 0.00 | 46 | 1010.3 |
| 20260501232039 | 10 | 355 | 3.2 | 6.4 | 0.00 | 0.00 | 0.00 | 46 | 1010.3 |
| 20260501231935 | 10 | 355 | 3.2 | 6.4 | 0.00 | 0.00 | 0.00 | 46 | 1010.3 |
| 20260501231858 | 10 | 355 | 1.6 | 6.4 | 0.00 | 0.00 | 0.00 | 46 | 1010.3 |
| 20260501231806 | 10 | 355 | 1.6 | 6.4 | 0.00 | 0.00 | 0.00 | 46 | 1010.3 |
| 20260501231725 | 10 | 355 | 3.2 | 6.4 | 0.00 | 0.00 | 0.00 | 46 | 1010.3 |
| 20260501231528 | 10 | 355 | 3.2 | 6.4 | 0.00 | 0.00 | 0.00 | 46 | 1010.3 |
| 20260501231429 | 10 | 350 | 3.2 | 6.4 | 0.00 | 0.00 | 0.00 | 46 | 1010.3 |
| 20260501231333 | 10 | 350 | 3.2 | 6.4 | 0.00 | 0.00 | 0.00 | 46 | 1010.3 |
| 20260501231256 | 10 | 355 | 3.2 | 4.8 | 0.00 | 0.00 | 0.00 | 45 | 1010.3 |
| 20260501231218 | 10 | 360 | 3.2 | 4.8 | 0.00 | 0.00 | 0.00 | 45 | 1010.2 |
| 20260501231122 | 10 | 11 | 1.6 | 4.8 | 0.00 | 0.00 | 0.00 | 46 | 1010.2 |
| 20260501231022 | 10 | 12 | 1.6 | 4.8 | 0.00 | 0.00 | 0.00 | 46 | 1010.2 |
| 20260501230825 | 10 | 22 | 1.6 | 8.0 | 0.00 | 0.00 | 0.00 | 46 | 1010.2 |
| 20260501230749 | 10 | 22 | 1.6 | 8.0 | 0.00 | 0.00 | 0.00 | 46 | 1010.2 |
| 20260501230620 | 10 | 22 | 0.0 | 8.0 | 0.00 | 0.00 | 0.00 | 46 | 1010.2 |
| 20260501230520 | 10 | 22 | 1.6 | 8.0 | 0.00 | 0.00 | 0.00 | 46 | 1010.2 |
| 20260501230403 | 10 | 22 | 1.6 | 8.0 | 0.00 | 0.00 | 0.00 | 46 | 1010.2 |
| 20260501230324 | 10 | 22 | 3.2 | 8.0 | 0.00 | 0.00 | 0.00 | 45 | 1010.2 |
| 20260501230126 | 10 | 30 | 3.2 | 8.0 | 0.00 | 0.00 | 0.00 | 45 | 1010.1 |
| 20260501230027 | 10 | 32 | 3.2 | 8.0 | 0.00 | 0.00 | 0.00 | 45 | 1010.1 |
| 20260501225932 | 10 | 32 | 3.2 | 8.0 | 0.00 | 0.00 | 0.00 | 44 | 1010.1 |
| 20260501225854 | 10 | 18 | 3.2 | 8.0 | 0.00 | 0.00 | 0.00 | 46 | 1010.1 |
| 20260501225815 | 10 | 20 | 3.2 | 8.0 | 0.00 | 0.00 | 0.00 | 45 | 1010.1 |
| 20260501225622 | 10 | 360 | 4.8 | 8.0 | 0.00 | 0.00 | 0.00 | 43 | 1010.1 |
| 20260501225545 | 10 | 26 | 4.8 | 9.7 | 0.00 | 0.00 | 0.00 | 43 | 1010.1 |
| 20260501225426 | 10 | 26 | 4.8 | 9.7 | 0.00 | 0.00 | 0.00 | 44 | 1010.1 |
| 20260501225349 | 10 | 9 | 4.8 | 9.7 | 0.00 | 0.00 | 0.00 | 44 | 1010.1 |
| 20260501225242 | 10 | 344 | 3.2 | 9.7 | 0.00 | 0.00 | 0.00 | 45 | 1010.1 |
| 20260501225125 | 10 | 350 | 3.2 | 9.7 | 0.00 | 0.00 | 0.00 | 45 | 1010.1 |
| 20260501225026 | 11 | 355 | 3.2 | 9.7 | 0.00 | 0.00 | 0.00 | 45 | 1010.1 |
| 20260501224949 | 11 | 360 | 1.6 | 9.7 | 0.00 | 0.00 | 0.00 | 44 | 1010.1 |
| 20260501224852 | 11 | 360 | 4.8 | 9.7 | 0.00 | 0.00 | 0.00 | 45 | 1010.1 |
| 20260501224757 | 11 | 360 | 4.8 | 9.7 | 0.00 | 0.00 | 0.00 | 44 | 1010.1 |
| 20260501224627 | 11 | 24 | 4.8 | 8.0 | 0.00 | 0.00 | 0.00 | 43 | 1010.1 |
| 20260501224521 | 11 | 16 | 4.8 | 8.0 | 0.00 | 0.00 | 0.00 | 45 | 1010.1 |
| 20260501224330 | 11 | 355 | 4.8 | 8.0 | 0.00 | 0.00 | 0.00 | 44 | 1010.1 |
| 20260501224244 | 11 | 360 | 4.8 | 8.0 | 0.00 | 0.00 | 0.00 | 44 | 1010.1 |
| 20260501224114 | 11 | 9 | 3.2 | 8.0 | 0.00 | 0.00 | 0.00 | 45 | 1010.1 |
| 20260501224015 | 11 | 355 | 3.2 | 9.7 | 0.00 | 0.00 | 0.00 | 44 | 1010.1 |
| 20260501223727 | 11 | 334 | 4.8 | 12.9 | 0.00 | 0.00 | 0.00 | 43 | 1010.1 |
| 20260501223649 | 11 | 34 | 4.8 | 12.9 | 0.00 | 0.00 | 0.00 | 44 | 1010.1 |
| 20260501223533 | 11 | 355 | 4.8 | 12.9 | 0.00 | 0.00 | 0.00 | 44 | 1010.1 |
| 20260501223500 | 11 | 346 | 4.8 | 12.9 | 0.00 | 0.00 | 0.00 | 43 | 1010.1 |
| 20260501223421 | 11 | 360 | 4.8 | 12.9 | 0.00 | 0.00 | 0.00 | 44 | 1010.1 |
| 20260501223224 | 11 | 347 | 6.4 | 12.9 | 0.00 | 0.00 | 0.00 | 43 | 1010.1 |
| 20260501223146 | 11 | 34 | 6.4 | 12.9 | 0.00 | 0.00 | 0.00 | 43 | 1010.1 |
| 20260501223029 | 11 | 350 | 4.8 | 12.9 | 0.00 | 0.00 | 0.00 | 43 | 1010.1 |
| 20260501222952 | 11 | 28 | 4.8 | 9.7 | 0.00 | 0.00 | 0.00 | 45 | 1010.1 |
| 20260501222907 | 11 | 355 | 4.8 | 9.7 | 0.00 | 0.00 | 0.00 | 44 | 1010.1 |
| 20260501222737 | 11 | 5 | 4.8 | 9.7 | 0.00 | 0.00 | 0.00 | 43 | 1010.1 |
| 20260501222638 | 11 | 22 | 3.2 | 9.7 | 0.00 | 0.00 | 0.00 | 45 | 1010.1 |
| 20260501222441 | 11 | 9 | 4.8 | 12.9 | 0.00 | 0.00 | 0.00 | 43 | 1010.0 |
| 20260501222407 | 11 | 24 | 4.8 | 12.9 | 0.00 | 0.00 | 0.00 | 43 | 1010.0 |
| 20260501222311 | 11 | 12 | 4.8 | 12.9 | 0.00 | 0.00 | 0.00 | 44 | 1010.0 |
| 20260501222233 | 11 | 355 | 4.8 | 12.9 | 0.00 | 0.00 | 0.00 | 43 | 1010.0 |
| 20260501222037 | 11 | 334 | 3.2 | 12.9 | 0.00 | 0.00 | 0.00 | 43 | 1009.9 |
| 20260501221939 | 11 | 10 | 4.8 | 12.9 | 0.00 | 0.00 | 0.00 | 44 | 1009.9 |
| 20260501221854 | 11 | 10 | 6.4 | 12.9 | 0.00 | 0.00 | 0.00 | 43 | 1010.0 |
| 20260501221814 | 11 | 342 | 6.4 | 12.9 | 0.00 | 0.00 | 0.00 | 43 | 1010.0 |
| 20260501221626 | 11 | 355 | 8.0 | 12.9 | 0.00 | 0.00 | 0.00 | 42 | 1009.9 |
| 20260501221539 | 11 | 346 | 6.4 | 12.9 | 0.00 | 0.00 | 0.00 | 44 | 1010.0 |
| 20260501221332 | 11 | 346 | 6.4 | 12.9 | 0.00 | 0.00 | 0.00 | 42 | 1010.0 |
| 20260501221247 | 11 | 348 | 6.4 | 12.9 | 0.00 | 0.00 | 0.00 | 42 | 1010.0 |
| 20260501221036 | 11 | 23 | 6.4 | 9.7 | 0.00 | 0.00 | 0.00 | 41 | 1010.0 |
| 20260501220952 | 11 | 344 | 4.8 | 9.7 | 0.00 | 0.00 | 0.00 | 41 | 1010.0 |
| 20260501220821 | 11 | 21 | 4.8 | 9.7 | 0.00 | 0.00 | 0.00 | 41 | 1010.1 |
| 20260501220730 | 11 | 12 | 6.4 | 9.7 | 0.00 | 0.00 | 0.00 | 41 | 1010.0 |
| 20260501220534 | 11 | 355 | 4.8 | 9.7 | 0.00 | 0.00 | 0.00 | 44 | 1010.0 |
| 20260501220456 | 11 | 340 | 4.8 | 9.7 | 0.00 | 0.00 | 0.00 | 44 | 1010.0 |
| 20260501220400 | 11 | 344 | 6.4 | 9.7 | 0.00 | 0.00 | 0.00 | 43 | 1010.0 |
| 20260501220238 | 11 | 336 | 4.8 | 9.7 | 0.00 | 0.00 | 0.00 | 43 | 1010.0 |
| 20260501220148 | 11 | 341 | 4.8 | 9.7 | 0.00 | 0.00 | 0.00 | 42 | 1010.0 |
| 20260501220111 | 11 | 324 | 6.4 | 9.7 | 0.00 | 0.00 | 0.00 | 42 | 1010.0 |
| 20260501220009 | 11 | 350 | 6.4 | 9.7 | 0.00 | 0.00 | 0.00 | 40 | 1010.0 |
| 20260501215930 | 11 | 335 | 6.4 | 12.9 | 0.00 | 0.03 | 0.00 | 40 | 1010.0 |
| 20260501215824 | 11 | 327 | 6.4 | 16.1 | 0.00 | 0.03 | 0.00 | 41 | 1010.0 |
| 20260501215634 | 11 | 350 | 3.2 | 16.1 | 0.00 | 0.03 | 0.00 | 42 | 1010.0 |
| 20260501215528 | 11 | 344 | 3.2 | 16.1 | 0.00 | 0.03 | 0.00 | 41 | 1010.0 |
| 20260501215450 | 11 | 344 | 4.8 | 16.1 | 0.00 | 0.03 | 0.00 | 41 | 1010.0 |
| 20260501215335 | 11 | 327 | 4.8 | 16.1 | 0.00 | 0.03 | 0.00 | 41 | 1010.0 |
| 20260501215257 | 11 | 317 | 4.8 | 16.1 | 0.00 | 0.03 | 0.00 | 41 | 1010.0 |
| 20260501215215 | 11 | 313 | 6.4 | 16.1 | 0.00 | 0.03 | 0.00 | 41 | 1010.0 |
| 20260501215025 | 11 | 307 | 9.7 | 16.1 | 0.00 | 0.03 | 0.00 | 39 | 1010.0 |
| 20260501214940 | 11 | 338 | 11.3 | 16.1 | 0.00 | 0.03 | 0.00 | 41 | 1010.0 |
| 20260501214728 | 11 | 347 | 8.0 | 16.1 | 0.00 | 0.03 | 0.00 | 41 | 1010.0 |
| 20260501214643 | 11 | 340 | 6.4 | 16.1 | 0.00 | 0.03 | 0.00 | 40 | 1010.0 |
| 20260501214513 | 11 | 5 | 6.4 | 16.1 | 0.00 | 0.03 | 0.00 | 40 | 1010.0 |
| 20260501214435 | 11 | 342 | 6.4 | 16.1 | 0.00 | 0.03 | 0.00 | 41 | 1010.0 |
| 20260501214238 | 11 | 319 | 4.8 | 16.1 | 0.00 | 0.03 | 0.00 | 40 | 1010.0 |
| 20260501214139 | 11 | 360 | 4.8 | 16.1 | 0.00 | 0.03 | 0.00 | 41 | 1009.9 |
| 20260501214027 | 11 | 355 | 8.0 | 16.1 | 0.00 | 0.03 | 0.00 | 41 | 1009.9 |
| 20260501213950 | 11 | 327 | 8.0 | 16.1 | 0.00 | 0.03 | 0.00 | 40 | 1009.9 |
| 20260501213912 | 11 | 15 | 6.4 | 16.1 | 0.00 | 0.03 | 0.00 | 41 | 1010.0 |
| 20260501213815 | 11 | 344 | 4.8 | 16.1 | 0.00 | 0.03 | 0.00 | 40 | 1010.0 |
| 20260501213704 | 11 | 332 | 8.0 | 16.1 | 0.00 | 0.03 | 0.00 | 39 | 1009.9 |
| 20260501213522 | 12 | 350 | 8.0 | 16.1 | 0.00 | 0.03 | 0.00 | 38 | 1009.9 |
| 20260501213427 | 12 | 308 | 8.0 | 16.1 | 0.00 | 0.03 | 0.00 | 38 | 1009.9 |
| 20260501213327 | 12 | 319 | 8.0 | 16.1 | 0.00 | 0.03 | 0.00 | 39 | 1009.9 |
| 20260501213136 | 12 | 300 | 8.0 | 16.1 | 0.00 | 0.03 | 0.00 | 38 | 1009.8 |
| 20260501213030 | 12 | 326 | 3.2 | 16.1 | 0.00 | 0.03 | 0.00 | 36 | 1009.8 |
| 20260501212840 | 12 | 313 | 3.2 | 16.1 | 0.00 | 0.03 | 0.00 | 39 | 1009.8 |
| 20260501212739 | 12 | 350 | 4.8 | 16.1 | 0.00 | 0.03 | 0.00 | 38 | 1009.8 |
| 20260501212623 | 12 | 333 | 8.0 | 16.1 | 0.00 | 0.03 | 0.00 | 36 | 1009.8 |
| 20260501212545 | 12 | 348 | 8.0 | 16.1 | 0.00 | 0.03 | 0.00 | 36 | 1009.8 |
| 20260501212505 | 12 | 350 | 8.0 | 16.1 | 0.00 | 0.03 | 0.00 | 37 | 1009.8 |
| 20260501212426 | 12 | 340 | 9.7 | 16.1 | 0.00 | 0.03 | 0.00 | 38 | 1009.8 |
| 20260501212309 | 12 | 309 | 11.3 | 16.1 | 0.00 | 0.03 | 0.00 | 38 | 1009.8 |
| 20260501212231 | 12 | 310 | 11.3 | 16.1 | 0.00 | 0.03 | 0.00 | 37 | 1009.8 |
| 20260501212034 | 12 | 355 | 9.7 | 16.1 | 0.00 | 0.03 | 0.00 | 39 | 1009.7 |
| 20260501211936 | 12 | 349 | 6.4 | 16.1 | 0.00 | 0.03 | 0.00 | 37 | 1009.7 |
| 20260501211849 | 12 | 355 | 4.8 | 16.1 | 0.00 | 0.03 | 0.00 | 37 | 1009.7 |
| 20260501211733 | 12 | 342 | 8.0 | 16.1 | 0.00 | 0.03 | 0.00 | 39 | 1009.7 |
| 20260501211637 | 12 | 355 | 8.0 | 16.1 | 0.00 | 0.03 | 0.00 | 39 | 1009.8 |
| 20260501211600 | 12 | 355 | 8.0 | 16.1 | 0.00 | 0.03 | 0.00 | 39 | 1009.8 |
| 20260501211521 | 12 | 23 | 4.8 | 16.1 | 0.00 | 0.03 | 0.00 | 39 | 1009.7 |
| 20260501211343 | 12 | 5 | 4.8 | 16.1 | 0.00 | 0.03 | 0.00 | 40 | 1009.8 |
| 20260501211304 | 12 | 53 | 4.8 | 20.9 | 0.00 | 0.03 | 0.00 | 39 | 1009.8 |
| 20260501211226 | 12 | 63 | 4.8 | 22.5 | 0.00 | 0.03 | 0.00 | 40 | 1009.8 |
| 20260501211107 | 12 | 24 | 4.8 | 22.5 | 0.00 | 0.03 | 0.00 | 39 | 1009.7 |
| 20260501211029 | 12 | 5 | 4.8 | 22.5 | 0.00 | 0.03 | 0.00 | 39 | 1009.8 |
| 20260501210832 | 12 | 338 | 8.0 | 22.5 | 0.00 | 0.03 | 0.00 | 39 | 1009.8 |
| 20260501210737 | 12 | 355 | 11.3 | 22.5 | 0.00 | 0.03 | 0.00 | 39 | 1009.8 |
| 20260501210641 | 12 | 320 | 11.3 | 22.5 | 0.00 | 0.03 | 0.00 | 38 | 1009.8 |
| 20260501210544 | 12 | 344 | 14.5 | 22.5 | 0.00 | 0.03 | 0.00 | 37 | 1009.8 |
| 20260501210438 | 12 | 355 | 14.5 | 22.5 | 0.00 | 0.03 | 0.00 | 38 | 1009.8 |
| 20260501210322 | 12 | 332 | 8.0 | 22.5 | 0.00 | 0.03 | 0.00 | 39 | 1009.8 |
| 20260501210245 | 12 | 323 | 4.8 | 22.5 | 0.00 | 0.03 | 0.00 | 42 | 1009.8 |
| 20260501210205 | 12 | 342 | 4.8 | 22.5 | 0.00 | 0.03 | 0.00 | 42 | 1009.7 |
| 20260501210039 | 12 | 27 | 9.7 | 22.5 | 0.00 | 0.03 | 0.00 | 39 | 1009.8 |
| 20260501205946 | 12 | 49 | 12.9 | 22.5 | 0.00 | 0.03 | 0.00 | 39 | 1009.8 |
| 20260501205830 | 12 | 317 | 9.7 | 22.5 | 0.00 | 0.15 | 0.00 | 39 | 1009.8 |
| 20260501205750 | 12 | 325 | 9.7 | 25.7 | 0.00 | 0.15 | 0.00 | 39 | 1009.8 |
| 20260501205622 | 12 | 34 | 9.7 | 25.7 | 0.00 | 0.15 | 0.00 | 42 | 1009.8 |
| 20260501205536 | 12 | 29 | 8.0 | 25.7 | 0.00 | 0.15 | 0.00 | 41 | 1009.8 |
| 20260501205405 | 12 | 309 | 6.4 | 25.7 | 0.00 | 0.15 | 0.00 | 37 | 1009.8 |
| 20260501205306 | 12 | 262 | 6.4 | 25.7 | 0.00 | 0.15 | 0.00 | 38 | 1009.8 |
| 20260501205129 | 12 | 259 | 8.0 | 25.7 | 0.00 | 0.15 | 0.00 | 39 | 1009.8 |
| 20260501205050 | 12 | 294 | 14.5 | 25.7 | 0.00 | 0.15 | 0.00 | 37 | 1009.8 |
| 20260501204932 | 12 | 313 | 14.5 | 25.7 | 0.00 | 0.15 | 0.00 | 38 | 1009.8 |
| 20260501204854 | 12 | 321 | 14.5 | 25.7 | 0.00 | 0.15 | 0.00 | 38 | 1009.8 |
| 20260501204820 | 12 | 317 | 12.9 | 19.3 | 0.00 | 0.15 | 0.00 | 39 | 1009.8 |
| 20260501204702 | 12 | 340 | 9.7 | 19.3 | 0.00 | 0.15 | 0.00 | 39 | 1009.7 |
| 20260501204542 | 12 | 329 | 3.2 | 17.7 | 0.00 | 0.15 | 0.00 | 39 | 1009.7 |
| 20260501204427 | 12 | 227 | 3.2 | 17.7 | 0.00 | 0.15 | 0.00 | 39 | 1009.7 |
| 20260501204349 | 12 | 323 | 3.2 | 17.7 | 0.00 | 0.15 | 0.00 | 39 | 1009.7 |
| 20260501204304 | 12 | 347 | 4.8 | 17.7 | 0.00 | 0.15 | 0.00 | 38 | 1009.8 |
| 20260501204132 | 12 | 355 | 8.0 | 17.7 | 0.00 | 0.15 | 0.00 | 39 | 1009.8 |
| 20260501204032 | 12 | 345 | 6.4 | 14.5 | 0.00 | 0.15 | 0.00 | 39 | 1009.9 |
| 20260501203836 | 12 | 42 | 4.8 | 14.5 | 0.00 | 0.15 | 0.00 | 38 | 1009.9 |
| 20260501203741 | 12 | 24 | 6.4 | 14.5 | 0.00 | 0.15 | 0.00 | 41 | 1009.9 |
| 20260501203625 | 12 | 321 | 4.8 | 22.5 | 0.00 | 0.15 | 0.00 | 42 | 1009.9 |
| 20260501203547 | 12 | 332 | 4.8 | 22.5 | 0.00 | 0.15 | 0.00 | 41 | 1009.9 |
| 20260501203430 | 12 | 360 | 8.0 | 22.5 | 0.00 | 0.15 | 0.00 | 38 | 1009.9 |
| 20260501203351 | 12 | 34 | 9.7 | 22.5 | 0.00 | 0.15 | 0.00 | 39 | 1009.9 |
| 20260501203234 | 12 | 42 | 11.3 | 22.5 | 0.00 | 0.15 | 0.00 | 40 | 1010.0 |
| 20260501203135 | 12 | 28 | 9.7 | 22.5 | 0.00 | 0.15 | 0.00 | 41 | 1010.0 |
| 20260501203005 | 12 | 355 | 12.9 | 22.5 | 0.00 | 0.15 | 0.00 | 40 | 1010.0 |
| 20260501202919 | 12 | 355 | 12.9 | 22.5 | 0.00 | 0.15 | 0.00 | 40 | 1010.0 |
| 20260501202728 | 12 | 336 | 8.0 | 17.7 | 0.00 | 0.15 | 0.00 | 40 | 1010.0 |
| 20260501202647 | 12 | 344 | 8.0 | 17.7 | 0.00 | 0.15 | 0.00 | 41 | 1010.0 |
| 20260501202455 | 12 | 348 | 8.0 | 17.7 | 0.00 | 0.15 | 0.00 | 39 | 1010.0 |
| 20260501202416 | 12 | 344 | 9.7 | 17.7 | 0.00 | 0.15 | 0.00 | 40 | 1010.0 |
| 20260501202244 | 12 | 327 | 12.9 | 17.7 | 0.00 | 0.15 | 0.00 | 39 | 1010.0 |
| 20260501202137 | 12 | 325 | 11.3 | 17.7 | 0.00 | 0.15 | 0.00 | 40 | 1009.9 |
| 20260501202039 | 12 | 9 | 9.7 | 17.7 | 0.00 | 0.15 | 0.00 | 39 | 1010.0 |
| 20260501201922 | 12 | 11 | 6.4 | 17.7 | 0.00 | 0.15 | 0.00 | 38 | 1009.9 |
| 20260501201845 | 12 | 319 | 6.4 | 17.7 | 0.00 | 0.15 | 0.00 | 39 | 1009.9 |
| 20260501201738 | 12 | 15 | 8.0 | 17.7 | 0.00 | 0.15 | 0.00 | 38 | 1009.9 |
| 20260501201627 | 12 | 298 | 12.9 | 17.7 | 0.00 | 0.15 | 0.00 | 40 | 1009.9 |
| 20260501201549 | 12 | 319 | 12.9 | 17.7 | 0.00 | 0.15 | 0.00 | 40 | 1009.9 |
| 20260501201510 | 12 | 345 | 11.3 | 16.1 | 0.00 | 0.15 | 0.00 | 39 | 1009.9 |
| 20260501201333 | 12 | 343 | 6.4 | 16.1 | 0.00 | 0.15 | 0.00 | 40 | 1009.9 |
| 20260501201256 | 12 | 326 | 4.8 | 12.9 | 0.00 | 0.15 | 0.00 | 40 | 1009.9 |
| 20260501201209 | 12 | 338 | 4.8 | 12.9 | 0.00 | 0.15 | 0.00 | 39 | 1009.9 |
| 20260501201019 | 12 | 317 | 4.8 | 12.9 | 0.00 | 0.15 | 0.00 | 44 | 1009.9 |
| 20260501200940 | 12 | 345 | 4.8 | 14.5 | 0.00 | 0.15 | 0.00 | 41 | 1009.8 |
| 20260501200721 | 11 | 332 | 8.0 | 14.5 | 0.00 | 0.15 | 0.00 | 41 | 1009.9 |
| 20260501200644 | 11 | 310 | 6.4 | 14.5 | 0.00 | 0.15 | 0.00 | 41 | 1009.9 |
| 20260501200532 | 11 | 322 | 3.2 | 14.5 | 0.00 | 0.15 | 0.00 | 43 | 1009.9 |
| 20260501200454 | 11 | 12 | 3.2 | 14.5 | 0.00 | 0.15 | 0.00 | 41 | 1009.9 |
| 20260501200416 | 11 | 340 | 4.8 | 14.5 | 0.00 | 0.15 | 0.00 | 42 | 1009.9 |
| 20260501200239 | 11 | 339 | 6.4 | 17.7 | 0.00 | 0.15 | 0.00 | 43 | 1010.0 |
| 20260501200140 | 11 | 329 | 4.8 | 22.5 | 0.00 | 0.15 | 0.00 | 42 | 1010.0 |
| 20260501200026 | 11 | 325 | 3.2 | 22.5 | 0.00 | 0.15 | 0.00 | 41 | 1010.0 |
| 20260501195947 | 11 | 30 | 3.2 | 22.5 | 0.00 | 0.33 | 0.00 | 41 | 1010.0 |
| 20260501195729 | 11 | 326 | 8.0 | 22.5 | 0.00 | 0.33 | 0.00 | 39 | 1010.1 |
| 20260501195652 | 11 | 327 | 9.7 | 22.5 | 0.00 | 0.33 | 0.00 | 39 | 1010.1 |
| 20260501195538 | 11 | 360 | 14.5 | 22.5 | 0.00 | 0.33 | 0.00 | 41 | 1010.0 |
| 20260501195500 | 11 | 315 | 14.5 | 22.5 | 0.00 | 0.33 | 0.00 | 41 | 1010.0 |
| 20260501195414 | 11 | 327 | 16.1 | 22.5 | 0.00 | 0.33 | 0.00 | 39 | 1010.0 |
| 20260501195224 | 11 | 342 | 12.9 | 16.1 | 0.00 | 0.33 | 0.00 | 42 | 1010.0 |
| 20260501195139 | 11 | 334 | 9.7 | 16.1 | 0.00 | 0.33 | 0.00 | 41 | 1010.0 |
| 20260501195010 | 11 | 351 | 6.4 | 14.5 | 0.00 | 0.33 | 0.00 | 42 | 1010.0 |
| 20260501194933 | 11 | 351 | 4.8 | 14.5 | 0.00 | 0.33 | 0.00 | 43 | 1010.0 |
| 20260501194735 | 11 | 351 | 6.4 | 16.1 | 0.00 | 0.33 | 0.00 | 43 | 1010.0 |
| 20260501194637 | 11 | 355 | 6.4 | 16.1 | 0.00 | 0.33 | 0.00 | 41 | 1010.0 |
| 20260501194524 | 11 | 5 | 8.0 | 16.1 | 0.00 | 0.33 | 0.00 | 40 | 1010.1 |
| 20260501194445 | 11 | 5 | 8.0 | 16.1 | 0.00 | 0.33 | 0.00 | 43 | 1010.1 |
| 20260501194328 | 11 | 24 | 6.4 | 16.1 | 0.00 | 0.33 | 0.00 | 41 | 1010.1 |
| 20260501194249 | 11 | 360 | 6.4 | 16.1 | 0.00 | 0.33 | 0.00 | 41 | 1010.1 |
| 20260501194033 | 11 | 28 | 8.0 | 16.1 | 0.00 | 0.33 | 0.00 | 41 | 1010.0 |
| 20260501193935 | 11 | 355 | 11.3 | 16.1 | 0.00 | 0.33 | 0.00 | 41 | 1010.0 |
| 20260501193838 | 11 | 35 | 8.0 | 16.1 | 0.00 | 0.33 | 0.00 | 41 | 1010.0 |
| 20260501193737 | 11 | 355 | 6.4 | 16.1 | 0.00 | 0.33 | 0.00 | 41 | 1010.0 |
| 20260501193557 | 11 | 14 | 8.0 | 16.1 | 0.00 | 0.33 | 0.00 | 42 | 1010.0 |
| 20260501193451 | 11 | 360 | 9.7 | 16.1 | 0.00 | 0.33 | 0.00 | 42 | 1010.0 |
| 20260501193322 | 11 | 339 | 6.4 | 12.9 | 0.00 | 0.33 | 0.00 | 41 | 1010.0 |
| 20260501193245 | 11 | 345 | 6.4 | 12.9 | 0.00 | 0.33 | 0.00 | 41 | 1010.0 |
| 20260501193115 | 11 | 298 | 4.8 | 12.9 | 0.00 | 0.33 | 0.00 | 44 | 1010.0 |
| 20260501193030 | 11 | 26 | 4.8 | 12.9 | 0.00 | 0.33 | 0.00 | 42 | 1010.0 |
| 20260501192840 | 11 | 16 | 1.6 | 11.3 | 0.00 | 0.33 | 0.00 | 40 | 1010.0 |
| 20260501192726 | 11 | 298 | 1.6 | 20.9 | 0.00 | 0.33 | 0.00 | 39 | 1010.0 |
| 20260501192648 | 11 | 298 | 3.2 | 20.9 | 0.00 | 0.33 | 0.00 | 39 | 1010.0 |
| 20260501192552 | 11 | 296 | 4.8 | 20.9 | 0.00 | 0.33 | 0.00 | 40 | 1010.0 |
| 20260501192454 | 11 | 264 | 4.8 | 20.9 | 0.00 | 0.33 | 0.00 | 46 | 1010.0 |
| 20260501192415 | 11 | 269 | 4.8 | 20.9 | 0.00 | 0.33 | 0.00 | 41 | 1009.9 |
| 20260501192238 | 11 | 275 | 4.8 | 20.9 | 0.00 | 0.33 | 0.00 | 40 | 1010.0 |
| 20260501192144 | 11 | 325 | 4.8 | 20.9 | 0.00 | 0.33 | 0.00 | 41 | 1010.0 |
| 20260501192048 | 11 | 273 | 9.7 | 20.9 | 0.00 | 0.33 | 0.00 | 39 | 1010.0 |
| 20260501191950 | 11 | 240 | 11.3 | 20.9 | 0.00 | 0.33 | 0.00 | 39 | 1010.0 |
| 20260501191910 | 12 | 306 | 11.3 | 24.1 | 0.00 | 0.33 | 0.00 | 39 | 1010.0 |
| 20260501191831 | 12 | 9 | 6.4 | 24.1 | 0.00 | 0.33 | 0.00 | 41 | 1010.1 |
| 20260501191712 | 12 | 304 | 4.8 | 24.1 | 0.00 | 0.33 | 0.00 | 40 | 1010.0 |
| 20260501191633 | 12 | 272 | 8.0 | 25.7 | 0.00 | 0.33 | 0.00 | 40 | 1010.0 |
| 20260501191437 | 12 | 327 | 12.9 | 30.6 | 0.00 | 0.33 | 0.00 | 39 | 1010.1 |
| 20260501191338 | 12 | 355 | 14.5 | 30.6 | 0.00 | 0.33 | 0.00 | 41 | 1010.1 |
| 20260501191222 | 12 | 332 | 17.7 | 30.6 | 0.00 | 0.33 | 0.00 | 41 | 1010.1 |
| 20260501191148 | 12 | 317 | 19.3 | 30.6 | 0.00 | 0.33 | 0.00 | 39 | 1010.1 |
| 20260501191102 | 12 | 336 | 19.3 | 30.6 | 0.00 | 0.33 | 0.00 | 39 | 1010.1 |